<?xml version='1.0' encoding='UTF-8'?><gpx version="1.1" creator="JPX - https://github.com/jenetics/jpx" xmlns="http://www.topografix.com/GPX/1/1"><trk><trkseg><trkpt lat="45.684025000891744" lon="10.979179060320895"><ele>1375.0</ele><time>2026-04-25T07:00:13Z</time></trkpt><trkpt lat="45.6839261960171" lon="10.979154900585566"><ele>1375.0</ele><time>2026-04-25T07:00:18Z</time></trkpt><trkpt lat="45.6838396180513" lon="10.979114167364125"><ele>1375.0</ele><time>2026-04-25T07:00:20Z</time></trkpt><trkpt lat="45.68378152612947" lon="10.97920096380938"><ele>1375.0</ele><time>2026-04-25T07:00:22Z</time></trkpt><trkpt lat="45.683761645759766" lon="10.979341651945244"><ele>1375.0</ele><time>2026-04-25T07:00:24Z</time></trkpt><trkpt lat="45.68376695613811" lon="10.979527097461656"><ele>1375.8</ele><time>2026-04-25T07:00:26Z</time></trkpt><trkpt lat="45.68377834764766" lon="10.979642040357495"><ele>1376.6</ele><time>2026-04-25T07:00:27Z</time></trkpt><trkpt lat="45.68377658249879" lon="10.979768484288304"><ele>1377.4</ele><time>2026-04-25T07:00:28Z</time></trkpt><trkpt lat="45.683760595205726" lon="10.979905750291614"><ele>1378.2</ele><time>2026-04-25T07:00:29Z</time></trkpt><trkpt lat="45.683740915070224" lon="10.980045168784217"><ele>1379.0</ele><time>2026-04-25T07:00:30Z</time></trkpt><trkpt lat="45.683722983262726" lon="10.980189814998427"><ele>1379.2</ele><time>2026-04-25T07:00:31Z</time></trkpt><trkpt lat="45.683709015150065" lon="10.980337425136398"><ele>1379.4</ele><time>2026-04-25T07:00:32Z</time></trkpt><trkpt lat="45.68369519615219" lon="10.980491537367191"><ele>1379.6</ele><time>2026-04-25T07:00:33Z</time></trkpt><trkpt lat="45.68367939326585" lon="10.98065279171497"><ele>1379.8</ele><time>2026-04-25T07:00:34Z</time></trkpt><trkpt lat="45.68366289912924" lon="10.980821117176957"><ele>1380.0</ele><time>2026-04-25T07:00:35Z</time></trkpt><trkpt lat="45.68364738808482" lon="10.980986654103532"><ele>1380.0</ele><time>2026-04-25T07:00:36Z</time></trkpt><trkpt lat="45.68363124228644" lon="10.981145877661062"><ele>1380.0</ele><time>2026-04-25T07:00:37Z</time></trkpt><trkpt lat="45.68361437872954" lon="10.981299588459894"><ele>1380.0</ele><time>2026-04-25T07:00:38Z</time></trkpt><trkpt lat="45.683598141581726" lon="10.981444907183942"><ele>1380.0</ele><time>2026-04-25T07:00:39Z</time></trkpt><trkpt lat="45.683580489096364" lon="10.98157937217752"><ele>1380.0</ele><time>2026-04-25T07:00:40Z</time></trkpt><trkpt lat="45.6835560198532" lon="10.981706444657297"><ele>1379.0</ele><time>2026-04-25T07:00:41Z</time></trkpt><trkpt lat="45.68352613489985" lon="10.981823572537627"><ele>1378.0</ele><time>2026-04-25T07:00:42Z</time></trkpt><trkpt lat="45.68350240767805" lon="10.98192932452435"><ele>1377.0</ele><time>2026-04-25T07:00:43Z</time></trkpt><trkpt lat="45.68349832377068" lon="10.982034005871968"><ele>1376.0</ele><time>2026-04-25T07:00:43.999Z</time></trkpt><trkpt lat="45.683576251563345" lon="10.982189387102803"><ele>1375.0</ele><time>2026-04-25T07:00:45.999Z</time></trkpt><trkpt lat="45.683640163007205" lon="10.982260318065762"><ele>1375.0</ele><time>2026-04-25T07:00:46.999Z</time></trkpt><trkpt lat="45.683746040303724" lon="10.98225671447563"><ele>1375.0</ele><time>2026-04-25T07:00:47.999Z</time></trkpt><trkpt lat="45.68385636090257" lon="10.982258783378349"><ele>1375.0</ele><time>2026-04-25T07:00:48.999Z</time></trkpt><trkpt lat="45.68397639237614" lon="10.982262188167343"><ele>1375.0</ele><time>2026-04-25T07:00:49.999Z</time></trkpt><trkpt lat="45.68410604097231" lon="10.982295713963953"><ele>1375.0</ele><time>2026-04-25T07:00:50.999Z</time></trkpt><trkpt lat="45.68424194809375" lon="10.982308439552197"><ele>1375.0</ele><time>2026-04-25T07:00:51.999Z</time></trkpt><trkpt lat="45.6843853635036" lon="10.982326557418427"><ele>1375.0</ele><time>2026-04-25T07:00:52.999Z</time></trkpt><trkpt lat="45.68453403295557" lon="10.982337102874764"><ele>1375.0</ele><time>2026-04-25T07:00:53.999Z</time></trkpt><trkpt lat="45.68467887639159" lon="10.982379848932638"><ele>1374.0</ele><time>2026-04-25T07:00:54.999Z</time></trkpt><trkpt lat="45.684822211691966" lon="10.982442672366055"><ele>1373.0</ele><time>2026-04-25T07:00:55.999Z</time></trkpt><trkpt lat="45.6849560443682" lon="10.98251285026738"><ele>1372.0</ele><time>2026-04-25T07:00:56.999Z</time></trkpt><trkpt lat="45.685081085172975" lon="10.982587517402203"><ele>1371.0</ele><time>2026-04-25T07:00:57.999Z</time></trkpt><trkpt lat="45.68519092795246" lon="10.98267421593512"><ele>1368.25</ele><time>2026-04-25T07:00:58.999Z</time></trkpt><trkpt lat="45.68527964399639" lon="10.982778274361126"><ele>1365.5</ele><time>2026-04-25T07:00:59.999Z</time></trkpt><trkpt lat="45.68536087357505" lon="10.982879106214353"><ele>1362.75</ele><time>2026-04-25T07:01:00.999Z</time></trkpt><trkpt lat="45.68547799838056" lon="10.982919813426761"><ele>1360.0</ele><time>2026-04-25T07:01:01.999Z</time></trkpt><trkpt lat="45.68561647060189" lon="10.982938923903443"><ele>1360.0</ele><time>2026-04-25T07:01:02.999Z</time></trkpt><trkpt lat="45.68576447752551" lon="10.982939404347594"><ele>1360.0</ele><time>2026-04-25T07:01:03.999Z</time></trkpt><trkpt lat="45.68592123003588" lon="10.982926912728626"><ele>1360.0</ele><time>2026-04-25T07:01:04.999Z</time></trkpt><trkpt lat="45.686089745541324" lon="10.98290569763137"><ele>1362.0</ele><time>2026-04-25T07:01:05.999Z</time></trkpt><trkpt lat="45.686257391473426" lon="10.982907606131159"><ele>1364.0</ele><time>2026-04-25T07:01:07Z</time></trkpt><trkpt lat="45.686416490559246" lon="10.982907509690687"><ele>1366.0</ele><time>2026-04-25T07:01:08Z</time></trkpt><trkpt lat="45.686573011241315" lon="10.98292817332312"><ele>1366.0</ele><time>2026-04-25T07:01:09Z</time></trkpt><trkpt lat="45.68673210726114" lon="10.982952408254576"><ele>1366.0</ele><time>2026-04-25T07:01:10Z</time></trkpt><trkpt lat="45.68688219038605" lon="10.983028733528451"><ele>1366.0</ele><time>2026-04-25T07:01:11Z</time></trkpt><trkpt lat="45.68702017234666" lon="10.983138723146933"><ele>1369.3333333333333</ele><time>2026-04-25T07:01:12Z</time></trkpt><trkpt lat="45.68713973704048" lon="10.983282390224925"><ele>1372.6666666666667</ele><time>2026-04-25T07:01:13Z</time></trkpt><trkpt lat="45.68724994704028" lon="10.983437220353412"><ele>1376.0</ele><time>2026-04-25T07:01:14Z</time></trkpt><trkpt lat="45.687366680003024" lon="10.983570421144748"><ele>1376.0</ele><time>2026-04-25T07:01:15Z</time></trkpt><trkpt lat="45.68748656890934" lon="10.983672457374894"><ele>1376.0</ele><time>2026-04-25T07:01:16Z</time></trkpt><trkpt lat="45.68760028956043" lon="10.983750325084989"><ele>1376.0</ele><time>2026-04-25T07:01:17Z</time></trkpt><trkpt lat="45.68769602971443" lon="10.98384733412581"><ele>1376.0</ele><time>2026-04-25T07:01:18Z</time></trkpt><trkpt lat="45.68777272042068" lon="10.983993848791053"><ele>1376.75</ele><time>2026-04-25T07:01:19Z</time></trkpt><trkpt lat="45.68785250241857" lon="10.984151863421022"><ele>1377.5</ele><time>2026-04-25T07:01:20Z</time></trkpt><trkpt lat="45.68793084039884" lon="10.984316913258839"><ele>1378.25</ele><time>2026-04-25T07:01:21Z</time></trkpt><trkpt lat="45.68800758054018" lon="10.9844811127855"><ele>1379.0</ele><time>2026-04-25T07:01:22Z</time></trkpt><trkpt lat="45.688076544619626" lon="10.984636627745862"><ele>1379.75</ele><time>2026-04-25T07:01:23Z</time></trkpt><trkpt lat="45.688137361571144" lon="10.98478363441757"><ele>1380.5</ele><time>2026-04-25T07:01:24Z</time></trkpt><trkpt lat="45.68818890495243" lon="10.984943209581786"><ele>1381.25</ele><time>2026-04-25T07:01:25Z</time></trkpt><trkpt lat="45.6881881543223" lon="10.985129184161904"><ele>1382.0</ele><time>2026-04-25T07:01:26Z</time></trkpt><trkpt lat="45.68818998275575" lon="10.985324964178183"><ele>1384.25</ele><time>2026-04-25T07:01:27Z</time></trkpt><trkpt lat="45.68819065034834" lon="10.985525786494538"><ele>1386.5</ele><time>2026-04-25T07:01:28Z</time></trkpt><trkpt lat="45.6881631989327" lon="10.985710939522612"><ele>1388.75</ele><time>2026-04-25T07:01:29Z</time></trkpt><trkpt lat="45.688092303328965" lon="10.985860004373242"><ele>1391.0</ele><time>2026-04-25T07:01:30Z</time></trkpt><trkpt lat="45.688004652738215" lon="10.98596872983435"><ele>1392.0</ele><time>2026-04-25T07:01:31Z</time></trkpt><trkpt lat="45.68789857998277" lon="10.986049401307733"><ele>1393.0</ele><time>2026-04-25T07:01:32Z</time></trkpt><trkpt lat="45.687784271831404" lon="10.986129245836185"><ele>1394.0</ele><time>2026-04-25T07:01:33Z</time></trkpt><trkpt lat="45.6876830325393" lon="10.986219706942181"><ele>1395.0</ele><time>2026-04-25T07:01:34Z</time></trkpt><trkpt lat="45.68759360643338" lon="10.98629623281921"><ele>1395.0</ele><time>2026-04-25T07:01:35Z</time></trkpt><trkpt lat="45.68752702306481" lon="10.986399830180705"><ele>1395.0</ele><time>2026-04-25T07:01:36Z</time></trkpt><trkpt lat="45.687486279882485" lon="10.986555965183385"><ele>1395.0</ele><time>2026-04-25T07:01:37Z</time></trkpt><trkpt lat="45.687469563095014" lon="10.986748740734088"><ele>1395.0</ele><time>2026-04-25T07:01:38Z</time></trkpt><trkpt lat="45.687410815799204" lon="10.986924829994209"><ele>1400.0</ele><time>2026-04-25T07:01:39Z</time></trkpt><trkpt lat="45.6873342308146" lon="10.987105413104889"><ele>1405.0</ele><time>2026-04-25T07:01:40Z</time></trkpt><trkpt lat="45.687241812696314" lon="10.987285637481069"><ele>1410.0</ele><time>2026-04-25T07:01:41Z</time></trkpt><trkpt lat="45.687136846252876" lon="10.987454645032358"><ele>1408.0</ele><time>2026-04-25T07:01:42Z</time></trkpt><trkpt lat="45.68702988229373" lon="10.987595991667389"><ele>1406.0</ele><time>2026-04-25T07:01:43Z</time></trkpt><trkpt lat="45.68693828489141" lon="10.987724210080307"><ele>1404.0</ele><time>2026-04-25T07:01:44Z</time></trkpt><trkpt lat="45.686852226539955" lon="10.987817095261102"><ele>1402.0</ele><time>2026-04-25T07:01:45Z</time></trkpt><trkpt lat="45.686791666592526" lon="10.987892103924302"><ele>1402.0</ele><time>2026-04-25T07:01:46Z</time></trkpt><trkpt lat="45.68677439991616" lon="10.988052509794894"><ele>1402.0</ele><time>2026-04-25T07:01:48Z</time></trkpt><trkpt lat="45.68683244842975" lon="10.988152401665271"><ele>1402.0</ele><time>2026-04-25T07:01:49Z</time></trkpt><trkpt lat="45.68685407539188" lon="10.988259979033446"><ele>1402.0</ele><time>2026-04-25T07:01:50Z</time></trkpt><trkpt lat="45.686821560824825" lon="10.988353892253267"><ele>1402.0</ele><time>2026-04-25T07:01:51Z</time></trkpt><trkpt lat="45.68674673029538" lon="10.988414310949555"><ele>1402.0</ele><time>2026-04-25T07:01:52Z</time></trkpt><trkpt lat="45.68665236987112" lon="10.988396260915769"><ele>1408.5</ele><time>2026-04-25T07:01:53Z</time></trkpt><trkpt lat="45.68653736805797" lon="10.988417130588168"><ele>1415.0</ele><time>2026-04-25T07:01:54Z</time></trkpt><trkpt lat="45.686432471045904" lon="10.988446505438032"><ele>1421.5</ele><time>2026-04-25T07:01:55Z</time></trkpt><trkpt lat="45.68634071307529" lon="10.98854937217916"><ele>1428.0</ele><time>2026-04-25T07:01:56Z</time></trkpt><trkpt lat="45.68624723729927" lon="10.988657715028637"><ele>1428.0</ele><time>2026-04-25T07:01:57Z</time></trkpt><trkpt lat="45.68612397929402" lon="10.988738194522474"><ele>1428.0</ele><time>2026-04-25T07:01:58Z</time></trkpt><trkpt lat="45.6859777538625" lon="10.988770132882758"><ele>1428.0</ele><time>2026-04-25T07:01:59Z</time></trkpt><trkpt lat="45.68583162642508" lon="10.988833885672424"><ele>1428.0</ele><time>2026-04-25T07:02:00Z</time></trkpt><trkpt lat="45.68568243198376" lon="10.988851989392119"><ele>1427.0</ele><time>2026-04-25T07:02:01Z</time></trkpt><trkpt lat="45.68554799779459" lon="10.988845548422045"><ele>1426.0</ele><time>2026-04-25T07:02:02Z</time></trkpt><trkpt lat="45.68542667897309" lon="10.98883330503954"><ele>1425.0</ele><time>2026-04-25T07:02:03Z</time></trkpt><trkpt lat="45.68531936279182" lon="10.988830164214717"><ele>1424.0</ele><time>2026-04-25T07:02:04Z</time></trkpt><trkpt lat="45.68522573446354" lon="10.98882774891116"><ele>1422.3333333333335</ele><time>2026-04-25T07:02:05Z</time></trkpt><trkpt lat="45.685145881789886" lon="10.98884449016798"><ele>1420.6666666666667</ele><time>2026-04-25T07:02:06Z</time></trkpt><trkpt lat="45.68508298802319" lon="10.988895394938666"><ele>1419.0</ele><time>2026-04-25T07:02:07Z</time></trkpt><trkpt lat="45.68503018479057" lon="10.988993888534782"><ele>1417.3333333333333</ele><time>2026-04-25T07:02:08Z</time></trkpt><trkpt lat="45.684998066801285" lon="10.989130957721216"><ele>1415.6666666666665</ele><time>2026-04-25T07:02:09Z</time></trkpt><trkpt lat="45.68497424486604" lon="10.989247526091072"><ele>1414.0</ele><time>2026-04-25T07:02:10Z</time></trkpt><trkpt lat="45.68496625197482" lon="10.98934600853197"><ele>1414.0</ele><time>2026-04-25T07:02:11Z</time></trkpt><trkpt lat="45.68496640130428" lon="10.989445092721608"><ele>1414.0</ele><time>2026-04-25T07:02:12Z</time></trkpt><trkpt lat="45.68504252348361" lon="10.98952976415561"><ele>1414.0</ele><time>2026-04-25T07:02:13Z</time></trkpt><trkpt lat="45.68515026830461" lon="10.98952748772134"><ele>1414.0</ele><time>2026-04-25T07:02:14Z</time></trkpt><trkpt lat="45.685236773680565" lon="10.989574783970676"><ele>1414.0</ele><time>2026-04-25T07:02:15Z</time></trkpt><trkpt lat="45.685286964980946" lon="10.989679421126793"><ele>1414.0</ele><time>2026-04-25T07:02:16Z</time></trkpt><trkpt lat="45.68529395479663" lon="10.989803716225339"><ele>1414.0</ele><time>2026-04-25T07:02:17Z</time></trkpt><trkpt lat="45.68524012035021" lon="10.989908437786692"><ele>1414.0</ele><time>2026-04-25T07:02:18Z</time></trkpt><trkpt lat="45.68521911571431" lon="10.990021302773087"><ele>1414.0</ele><time>2026-04-25T07:02:19Z</time></trkpt><trkpt lat="45.68523320756162" lon="10.990143640261019"><ele>1414.0</ele><time>2026-04-25T07:02:20Z</time></trkpt><trkpt lat="45.68527983816067" lon="10.990255521121815"><ele>1414.0</ele><time>2026-04-25T07:02:21Z</time></trkpt><trkpt lat="45.68534015694891" lon="10.990341041184214"><ele>1421.0</ele><time>2026-04-25T07:02:22Z</time></trkpt><trkpt lat="45.68544795807362" lon="10.990353850584942"><ele>1428.0</ele><time>2026-04-25T07:02:23Z</time></trkpt><trkpt lat="45.68551331337712" lon="10.990402426509354"><ele>1435.0</ele><time>2026-04-25T07:02:24Z</time></trkpt><trkpt lat="45.68554818267049" lon="10.990511389997485"><ele>1442.0</ele><time>2026-04-25T07:02:25Z</time></trkpt><trkpt lat="45.68555659461228" lon="10.990655395502852"><ele>1449.0</ele><time>2026-04-25T07:02:26Z</time></trkpt><trkpt lat="45.68558564722061" lon="10.990804103281915"><ele>1447.0</ele><time>2026-04-25T07:02:27Z</time></trkpt><trkpt lat="45.68560859883263" lon="10.99098183346398"><ele>1445.0</ele><time>2026-04-25T07:02:28Z</time></trkpt><trkpt lat="45.685621704028605" lon="10.991145331894762"><ele>1443.0</ele><time>2026-04-25T07:02:29Z</time></trkpt><trkpt lat="45.68562390236764" lon="10.99129357161232"><ele>1441.0</ele><time>2026-04-25T07:02:30Z</time></trkpt><trkpt lat="45.68563667376697" lon="10.99143328788166"><ele>1439.0</ele><time>2026-04-25T07:02:31Z</time></trkpt><trkpt lat="45.685664388800085" lon="10.991530376615954"><ele>1439.0</ele><time>2026-04-25T07:02:32Z</time></trkpt><trkpt lat="45.685712921992916" lon="10.99159744174801"><ele>1439.0</ele><time>2026-04-25T07:02:34Z</time></trkpt><trkpt lat="45.68580855055642" lon="10.991653523206958"><ele>1439.0</ele><time>2026-04-25T07:02:47Z</time></trkpt><trkpt lat="45.68591717624904" lon="10.991737893547286"><ele>1439.0</ele><time>2026-04-25T07:02:49Z</time></trkpt><trkpt lat="45.686013676226864" lon="10.99181415898101"><ele>1439.0</ele><time>2026-04-25T07:02:51Z</time></trkpt><trkpt lat="45.686076661216134" lon="10.991874895581148"><ele>1441.2</ele><time>2026-04-25T07:02:52Z</time></trkpt><trkpt lat="45.686143712340396" lon="10.991945396624526"><ele>1443.4</ele><time>2026-04-25T07:02:53Z</time></trkpt><trkpt lat="45.6862196779954" lon="10.99199986718362"><ele>1445.6</ele><time>2026-04-25T07:02:54Z</time></trkpt><trkpt lat="45.68631017037301" lon="10.99201519033974"><ele>1447.8</ele><time>2026-04-25T07:02:55Z</time></trkpt><trkpt lat="45.68641374081774" lon="10.992021934222798"><ele>1450.0</ele><time>2026-04-25T07:02:56Z</time></trkpt><trkpt lat="45.68652380242939" lon="10.992011271749632"><ele>1450.0</ele><time>2026-04-25T07:02:57Z</time></trkpt><trkpt lat="45.686638720607824" lon="10.991999326388056"><ele>1450.0</ele><time>2026-04-25T07:02:58Z</time></trkpt><trkpt lat="45.68674723580589" lon="10.99198698477485"><ele>1450.0</ele><time>2026-04-25T07:02:59Z</time></trkpt><trkpt lat="45.68683667492522" lon="10.991984333884432"><ele>1450.0</ele><time>2026-04-25T07:03:00Z</time></trkpt><trkpt lat="45.68690259517413" lon="10.99200433748079"><ele>1450.0</ele><time>2026-04-25T07:03:01Z</time></trkpt><trkpt lat="45.68698213102689" lon="10.992126888850162"><ele>1450.0</ele><time>2026-04-25T07:03:03Z</time></trkpt><trkpt lat="45.68697212904877" lon="10.992254265760423"><ele>1450.0</ele><time>2026-04-25T07:03:04Z</time></trkpt><trkpt lat="45.6869079058085" lon="10.992363409679752"><ele>1450.0</ele><time>2026-04-25T07:03:05Z</time></trkpt><trkpt lat="45.6868380370248" lon="10.992474104581648"><ele>1450.0</ele><time>2026-04-25T07:03:06Z</time></trkpt><trkpt lat="45.68677021117338" lon="10.99257062493973"><ele>1450.0</ele><time>2026-04-25T07:03:07Z</time></trkpt><trkpt lat="45.686695474588056" lon="10.992590076356137"><ele>1450.8</ele><time>2026-04-25T07:03:07.999Z</time></trkpt><trkpt lat="45.686623946335466" lon="10.992584463599961"><ele>1451.6</ele><time>2026-04-25T07:03:08.999Z</time></trkpt><trkpt lat="45.686542617679585" lon="10.99269072519327"><ele>1452.4</ele><time>2026-04-25T07:03:10.999Z</time></trkpt><trkpt lat="45.68657702849041" lon="10.992799017152418"><ele>1453.2</ele><time>2026-04-25T07:03:12Z</time></trkpt><trkpt lat="45.686651698683875" lon="10.992837857063442"><ele>1454.0</ele><time>2026-04-25T07:03:13Z</time></trkpt><trkpt lat="45.686758301640964" lon="10.992792086739719"><ele>1454.0</ele><time>2026-04-25T07:03:14Z</time></trkpt><trkpt lat="45.686846681913316" lon="10.992713132306472"><ele>1454.0</ele><time>2026-04-25T07:03:15Z</time></trkpt><trkpt lat="45.68696010699841" lon="10.992593631785345"><ele>1454.0</ele><time>2026-04-25T07:03:16Z</time></trkpt><trkpt lat="45.68708500823937" lon="10.99246708201509"><ele>1454.0</ele><time>2026-04-25T07:03:17Z</time></trkpt><trkpt lat="45.687176127735626" lon="10.992284153884128"><ele>1457.0</ele><time>2026-04-25T07:03:18Z</time></trkpt><trkpt lat="45.687274595810415" lon="10.992147482031063"><ele>1460.0</ele><time>2026-04-25T07:03:19Z</time></trkpt><trkpt lat="45.68734792336709" lon="10.992021302036397"><ele>1463.0</ele><time>2026-04-25T07:03:20Z</time></trkpt><trkpt lat="45.68742683859622" lon="10.991952439093021"><ele>1466.0</ele><time>2026-04-25T07:03:21Z</time></trkpt><trkpt lat="45.68748553809388" lon="10.9918737329106"><ele>1469.0</ele><time>2026-04-25T07:03:22Z</time></trkpt><trkpt lat="45.687486816219604" lon="10.991757916425373"><ele>1467.4</ele><time>2026-04-25T07:03:23Z</time></trkpt><trkpt lat="45.68741649729486" lon="10.991655230869345"><ele>1465.8000000000002</ele><time>2026-04-25T07:03:24Z</time></trkpt><trkpt lat="45.68736831123664" lon="10.991565800280755"><ele>1464.1999999999998</ele><time>2026-04-25T07:03:25Z</time></trkpt><trkpt lat="45.68740540802335" lon="10.991447021668657"><ele>1462.6</ele><time>2026-04-25T07:03:27Z</time></trkpt><trkpt lat="45.687497158210284" lon="10.991557664775511"><ele>1461.0</ele><time>2026-04-25T07:03:29Z</time></trkpt><trkpt lat="45.687544902986154" lon="10.991663928421342"><ele>1463.0</ele><time>2026-04-25T07:03:30Z</time></trkpt><trkpt lat="45.687602855506604" lon="10.991789431961575"><ele>1465.0</ele><time>2026-04-25T07:03:31Z</time></trkpt><trkpt lat="45.68767777315944" lon="10.991957104481765"><ele>1467.0</ele><time>2026-04-25T07:03:32Z</time></trkpt><trkpt lat="45.68775650178895" lon="10.992072780015242"><ele>1469.0</ele><time>2026-04-25T07:03:33Z</time></trkpt><trkpt lat="45.687850832658825" lon="10.992130265975012"><ele>1470.0</ele><time>2026-04-25T07:03:34Z</time></trkpt><trkpt lat="45.687958830524295" lon="10.992055919160913"><ele>1471.0</ele><time>2026-04-25T07:03:35Z</time></trkpt><trkpt lat="45.688034159841706" lon="10.99198026094753"><ele>1472.0</ele><time>2026-04-25T07:03:36Z</time></trkpt><trkpt lat="45.68812326715536" lon="10.991873981085744"><ele>1473.0</ele><time>2026-04-25T07:03:37Z</time></trkpt><trkpt lat="45.688218790818034" lon="10.991821553969755"><ele>1474.0</ele><time>2026-04-25T07:03:38Z</time></trkpt><trkpt lat="45.688299291745786" lon="10.991789537227755"><ele>1474.0</ele><time>2026-04-25T07:03:39Z</time></trkpt><trkpt lat="45.68837563837601" lon="10.991843417509882"><ele>1474.0</ele><time>2026-04-25T07:03:40Z</time></trkpt><trkpt lat="45.68840549764687" lon="10.991969692567189"><ele>1474.0</ele><time>2026-04-25T07:03:41Z</time></trkpt><trkpt lat="45.688463064659146" lon="10.992113913920482"><ele>1474.0</ele><time>2026-04-25T07:03:42Z</time></trkpt><trkpt lat="45.68851871086579" lon="10.992277859936442"><ele>1474.0</ele><time>2026-04-25T07:03:43Z</time></trkpt><trkpt lat="45.68856441152866" lon="10.992452942356005"><ele>1477.75</ele><time>2026-04-25T07:03:44Z</time></trkpt><trkpt lat="45.68862054968928" lon="10.992599625306791"><ele>1481.5</ele><time>2026-04-25T07:03:45Z</time></trkpt><trkpt lat="45.6887493622818" lon="10.992630496724969"><ele>1485.25</ele><time>2026-04-25T07:03:46Z</time></trkpt><trkpt lat="45.68885734482718" lon="10.992641856658368"><ele>1489.0</ele><time>2026-04-25T07:03:47Z</time></trkpt><trkpt lat="45.688928474552704" lon="10.992755606386815"><ele>1489.0</ele><time>2026-04-25T07:03:48Z</time></trkpt><trkpt lat="45.68901634324984" lon="10.992858920611658"><ele>1489.0</ele><time>2026-04-25T07:03:49Z</time></trkpt><trkpt lat="45.68910470258707" lon="10.992903284267728"><ele>1489.0</ele><time>2026-04-25T07:03:50Z</time></trkpt><trkpt lat="45.68918847760665" lon="10.992919788227091"><ele>1489.0</ele><time>2026-04-25T07:03:51Z</time></trkpt><trkpt lat="45.68927316596989" lon="10.992826063131409"><ele>1489.0</ele><time>2026-04-25T07:03:52Z</time></trkpt><trkpt lat="45.68929811032473" lon="10.992664286932442"><ele>1489.6</ele><time>2026-04-25T07:03:53Z</time></trkpt><trkpt lat="45.68930761824552" lon="10.992502636758035"><ele>1490.2</ele><time>2026-04-25T07:03:54Z</time></trkpt><trkpt lat="45.68935471479369" lon="10.992360527593199"><ele>1490.8</ele><time>2026-04-25T07:03:55Z</time></trkpt><trkpt lat="45.68942768809844" lon="10.992263170368878"><ele>1491.3999999999999</ele><time>2026-04-25T07:03:56Z</time></trkpt><trkpt lat="45.689529603722434" lon="10.99221567315432"><ele>1492.0</ele><time>2026-04-25T07:03:57Z</time></trkpt><trkpt lat="45.6896482579551" lon="10.992155930889187"><ele>1492.0</ele><time>2026-04-25T07:03:58Z</time></trkpt><trkpt lat="45.68974704656004" lon="10.992119286063957"><ele>1492.0</ele><time>2026-04-25T07:03:59Z</time></trkpt><trkpt lat="45.6898190116106" lon="10.992092502194867"><ele>1492.0</ele><time>2026-04-25T07:04:00Z</time></trkpt><trkpt lat="45.68988315347386" lon="10.99214891863778"><ele>1492.0</ele><time>2026-04-25T07:04:02Z</time></trkpt><trkpt lat="45.68989582692764" lon="10.99252704821206"><ele>1492.6</ele><time>2026-04-25T07:04:03Z</time></trkpt><trkpt lat="45.68995201837173" lon="10.992646167014069"><ele>1493.1999999999998</ele><time>2026-04-25T07:04:04Z</time></trkpt><trkpt lat="45.690062168440704" lon="10.992703521907872"><ele>1493.8</ele><time>2026-04-25T07:04:05Z</time></trkpt><trkpt lat="45.6901520858641" lon="10.99277937791099"><ele>1494.4</ele><time>2026-04-25T07:04:06Z</time></trkpt><trkpt lat="45.69021287208247" lon="10.992887373768207"><ele>1495.0</ele><time>2026-04-25T07:04:07Z</time></trkpt><trkpt lat="45.69026381683778" lon="10.993013267820922"><ele>1497.25</ele><time>2026-04-25T07:04:08Z</time></trkpt><trkpt lat="45.690317672865056" lon="10.99315386774964"><ele>1499.5</ele><time>2026-04-25T07:04:09Z</time></trkpt><trkpt lat="45.69038407362693" lon="10.99330129992353"><ele>1501.75</ele><time>2026-04-25T07:04:10Z</time></trkpt><trkpt lat="45.690452922890785" lon="10.993454948526267"><ele>1504.0</ele><time>2026-04-25T07:04:11Z</time></trkpt><trkpt lat="45.69051857403717" lon="10.993615442664002"><ele>1504.0</ele><time>2026-04-25T07:04:12Z</time></trkpt><trkpt lat="45.690606479049336" lon="10.993755392608797"><ele>1504.0</ele><time>2026-04-25T07:04:13Z</time></trkpt><trkpt lat="45.690724338302445" lon="10.993849924075237"><ele>1504.0</ele><time>2026-04-25T07:04:14Z</time></trkpt><trkpt lat="45.690858772564525" lon="10.993915711052042"><ele>1504.0</ele><time>2026-04-25T07:04:15Z</time></trkpt><trkpt lat="45.69098214509191" lon="10.994017157423514"><ele>1503.0</ele><time>2026-04-25T07:04:16Z</time></trkpt><trkpt lat="45.691080411176166" lon="10.99417331033856"><ele>1502.0</ele><time>2026-04-25T07:04:17Z</time></trkpt><trkpt lat="45.69114960488676" lon="10.994363531376793"><ele>1501.0</ele><time>2026-04-25T07:04:18Z</time></trkpt><trkpt lat="45.69120640885208" lon="10.99455975700258"><ele>1500.0</ele><time>2026-04-25T07:04:19Z</time></trkpt><trkpt lat="45.69126522657342" lon="10.99474128329652"><ele>1504.0</ele><time>2026-04-25T07:04:20Z</time></trkpt><trkpt lat="45.691341516309784" lon="10.994903406811796"><ele>1508.0</ele><time>2026-04-25T07:04:21Z</time></trkpt><trkpt lat="45.69142696655186" lon="10.995058387689689"><ele>1512.0</ele><time>2026-04-25T07:04:22Z</time></trkpt><trkpt lat="45.69151316651215" lon="10.995213921891272"><ele>1516.0</ele><time>2026-04-25T07:04:23Z</time></trkpt><trkpt lat="45.69159907399328" lon="10.995365012135487"><ele>1516.0</ele><time>2026-04-25T07:04:24Z</time></trkpt><trkpt lat="45.691685677823656" lon="10.995501602235263"><ele>1516.0</ele><time>2026-04-25T07:04:25Z</time></trkpt><trkpt lat="45.69177794308891" lon="10.995624853332853"><ele>1516.0</ele><time>2026-04-25T07:04:26Z</time></trkpt><trkpt lat="45.69187718844433" lon="10.99573632428206"><ele>1516.0</ele><time>2026-04-25T07:04:27Z</time></trkpt><trkpt lat="45.69197582338872" lon="10.995841960469912"><ele>1518.6</ele><time>2026-04-25T07:04:28Z</time></trkpt><trkpt lat="45.69206104415958" lon="10.99595673696987"><ele>1521.1999999999998</ele><time>2026-04-25T07:04:29Z</time></trkpt><trkpt lat="45.692130957086825" lon="10.996083908558875"><ele>1523.8000000000002</ele><time>2026-04-25T07:04:30Z</time></trkpt><trkpt lat="45.69219006555264" lon="10.996213759847691"><ele>1526.4</ele><time>2026-04-25T07:04:31Z</time></trkpt><trkpt lat="45.692243701394624" lon="10.996332726353117"><ele>1529.0</ele><time>2026-04-25T07:04:32Z</time></trkpt><trkpt lat="45.692297831019296" lon="10.996445757106995"><ele>1529.0</ele><time>2026-04-25T07:04:33Z</time></trkpt><trkpt lat="45.69233785096304" lon="10.996565608261356"><ele>1529.0</ele><time>2026-04-25T07:04:34Z</time></trkpt><trkpt lat="45.69234528039774" lon="10.99670499415981"><ele>1529.0</ele><time>2026-04-25T07:04:35Z</time></trkpt><trkpt lat="45.69230349529416" lon="10.996832167481038"><ele>1529.0</ele><time>2026-04-25T07:04:36Z</time></trkpt><trkpt lat="45.69221877048687" lon="10.996914600646642"><ele>1529.0</ele><time>2026-04-25T07:04:37Z</time></trkpt><trkpt lat="45.692122707519864" lon="10.996927486841559"><ele>1530.0</ele><time>2026-04-25T07:04:38Z</time></trkpt><trkpt lat="45.69201648083222" lon="10.996904389925495"><ele>1531.0</ele><time>2026-04-25T07:04:39Z</time></trkpt><trkpt lat="45.69190202205383" lon="10.996901763833671"><ele>1532.0</ele><time>2026-04-25T07:04:40Z</time></trkpt><trkpt lat="45.69177597402048" lon="10.99692069275771"><ele>1533.0</ele><time>2026-04-25T07:04:41Z</time></trkpt><trkpt lat="45.69164914817765" lon="10.99694944404694"><ele>1533.0</ele><time>2026-04-25T07:04:42Z</time></trkpt><trkpt lat="45.69152718066248" lon="10.99697417492587"><ele>1533.0</ele><time>2026-04-25T07:04:43Z</time></trkpt><trkpt lat="45.691413353002496" lon="10.997005117821802"><ele>1533.0</ele><time>2026-04-25T07:04:44Z</time></trkpt><trkpt lat="45.69130682708566" lon="10.9970544441145"><ele>1533.0</ele><time>2026-04-25T07:04:45Z</time></trkpt><trkpt lat="45.69121779743234" lon="10.99713233330382"><ele>1533.0</ele><time>2026-04-25T07:04:46Z</time></trkpt><trkpt lat="45.69116001595685" lon="10.997251942921327"><ele>1533.0</ele><time>2026-04-25T07:04:47Z</time></trkpt><trkpt lat="45.691135676717906" lon="10.997397799517053"><ele>1533.0</ele><time>2026-04-25T07:04:48Z</time></trkpt><trkpt lat="45.691133208024404" lon="10.99755617896121"><ele>1533.0</ele><time>2026-04-25T07:04:49Z</time></trkpt><trkpt lat="45.691122770021764" lon="10.997725003305128"><ele>1533.0</ele><time>2026-04-25T07:04:50Z</time></trkpt><trkpt lat="45.69111002025603" lon="10.997889894491639"><ele>1532.6000000000001</ele><time>2026-04-25T07:04:51Z</time></trkpt><trkpt lat="45.69109723282723" lon="10.998041593686773"><ele>1532.2</ele><time>2026-04-25T07:04:52Z</time></trkpt><trkpt lat="45.69106476510698" lon="10.998179235084006"><ele>1531.8</ele><time>2026-04-25T07:04:53Z</time></trkpt><trkpt lat="45.69098829996963" lon="10.99829748025279"><ele>1531.4</ele><time>2026-04-25T07:04:54Z</time></trkpt><trkpt lat="45.69087621767395" lon="10.998373689427876"><ele>1531.0</ele><time>2026-04-25T07:04:55Z</time></trkpt><trkpt lat="45.690761683419254" lon="10.998411162182933"><ele>1533.75</ele><time>2026-04-25T07:04:56Z</time></trkpt><trkpt lat="45.69063383061669" lon="10.998429388448468"><ele>1536.5</ele><time>2026-04-25T07:04:57Z</time></trkpt><trkpt lat="45.69050485539574" lon="10.998443654302791"><ele>1539.25</ele><time>2026-04-25T07:04:58Z</time></trkpt><trkpt lat="45.69038412544389" lon="10.998452541150643"><ele>1542.0</ele><time>2026-04-25T07:04:59Z</time></trkpt><trkpt lat="45.69027561850009" lon="10.998440483080639"><ele>1543.25</ele><time>2026-04-25T07:05:00Z</time></trkpt><trkpt lat="45.690166699947824" lon="10.998400223099438"><ele>1544.5</ele><time>2026-04-25T07:05:01Z</time></trkpt><trkpt lat="45.69006068277963" lon="10.998326303522427"><ele>1545.75</ele><time>2026-04-25T07:05:02Z</time></trkpt><trkpt lat="45.6899578752289" lon="10.998230157061906"><ele>1547.0</ele><time>2026-04-25T07:05:03Z</time></trkpt><trkpt lat="45.68985553102628" lon="10.998137991148623"><ele>1543.6</ele><time>2026-04-25T07:05:04Z</time></trkpt><trkpt lat="45.6897498267178" lon="10.998089564259178"><ele>1540.1999999999998</ele><time>2026-04-25T07:05:05Z</time></trkpt><trkpt lat="45.68964704863094" lon="10.998092856156106"><ele>1536.8</ele><time>2026-04-25T07:05:06Z</time></trkpt><trkpt lat="45.68955725934492" lon="10.998143167480453"><ele>1533.4</ele><time>2026-04-25T07:05:07Z</time></trkpt><trkpt lat="45.68946135003344" lon="10.998229634275607"><ele>1530.0</ele><time>2026-04-25T07:05:08Z</time></trkpt><trkpt lat="45.689351761859236" lon="10.998313590306703"><ele>1532.75</ele><time>2026-04-25T07:05:09Z</time></trkpt><trkpt lat="45.68923523474042" lon="10.998394348443256"><ele>1535.5</ele><time>2026-04-25T07:05:10Z</time></trkpt><trkpt lat="45.68910894634227" lon="10.998485628348751"><ele>1538.25</ele><time>2026-04-25T07:05:11Z</time></trkpt><trkpt lat="45.688976268591" lon="10.998576861814447"><ele>1541.0</ele><time>2026-04-25T07:05:12Z</time></trkpt><trkpt lat="45.68883907207203" lon="10.998665060509458"><ele>1541.0</ele><time>2026-04-25T07:05:13Z</time></trkpt><trkpt lat="45.68870304113638" lon="10.998753914364059"><ele>1541.0</ele><time>2026-04-25T07:05:14Z</time></trkpt><trkpt lat="45.68857570458928" lon="10.998833134004586"><ele>1541.0</ele><time>2026-04-25T07:05:15Z</time></trkpt><trkpt lat="45.688461551460534" lon="10.998908786237827"><ele>1541.0</ele><time>2026-04-25T07:05:16Z</time></trkpt><trkpt lat="45.68836918074669" lon="10.998994417010332"><ele>1538.1999999999998</ele><time>2026-04-25T07:05:17Z</time></trkpt><trkpt lat="45.68831720538764" lon="10.99911219004018"><ele>1535.3999999999999</ele><time>2026-04-25T07:05:18Z</time></trkpt><trkpt lat="45.688298103884456" lon="10.999251723938137"><ele>1532.6</ele><time>2026-04-25T07:05:19Z</time></trkpt><trkpt lat="45.68830434169694" lon="10.999400567057238"><ele>1529.8</ele><time>2026-04-25T07:05:20Z</time></trkpt><trkpt lat="45.68831108579475" lon="10.999556608770755"><ele>1527.0</ele><time>2026-04-25T07:05:21Z</time></trkpt><trkpt lat="45.688338704876735" lon="10.999710359780234"><ele>1526.5</ele><time>2026-04-25T07:05:22Z</time></trkpt><trkpt lat="45.688406450476755" lon="10.999835550100174"><ele>1526.0</ele><time>2026-04-25T07:05:23Z</time></trkpt><trkpt lat="45.68849967382444" lon="10.999941334380148"><ele>1525.5</ele><time>2026-04-25T07:05:24Z</time></trkpt><trkpt lat="45.68859093687082" lon="11.000052786205567"><ele>1525.0</ele><time>2026-04-25T07:05:25Z</time></trkpt><trkpt lat="45.68868314150625" lon="11.000176794564736"><ele>1530.0</ele><time>2026-04-25T07:05:26Z</time></trkpt><trkpt lat="45.688773141437416" lon="11.000305593488639"><ele>1535.0</ele><time>2026-04-25T07:05:27Z</time></trkpt><trkpt lat="45.68887426159492" lon="11.00041579250618"><ele>1540.0</ele><time>2026-04-25T07:05:28Z</time></trkpt><trkpt lat="45.68897411468849" lon="11.000494741273847"><ele>1545.0</ele><time>2026-04-25T07:05:29Z</time></trkpt><trkpt lat="45.68906204258203" lon="11.000560857323835"><ele>1545.0</ele><time>2026-04-25T07:05:30Z</time></trkpt><trkpt lat="45.689141132518344" lon="11.000623632905096"><ele>1545.0</ele><time>2026-04-25T07:05:31Z</time></trkpt><trkpt lat="45.68921559659384" lon="11.00069214749179"><ele>1545.0</ele><time>2026-04-25T07:05:32Z</time></trkpt><trkpt lat="45.689270656865304" lon="11.000794633711145"><ele>1545.0</ele><time>2026-04-25T07:05:33Z</time></trkpt><trkpt lat="45.68929793730633" lon="11.000924279747192"><ele>1545.0</ele><time>2026-04-25T07:05:34Z</time></trkpt><trkpt lat="45.689340468200314" lon="11.001021724048066"><ele>1545.0</ele><time>2026-04-25T07:05:35Z</time></trkpt><trkpt lat="45.68940465980429" lon="11.00109535365923"><ele>1545.0</ele><time>2026-04-25T07:05:36Z</time></trkpt><trkpt lat="45.68948817068874" lon="11.001152422476155"><ele>1545.0</ele><time>2026-04-25T07:05:37Z</time></trkpt><trkpt lat="45.689588786548995" lon="11.001163225652112"><ele>1545.0</ele><time>2026-04-25T07:05:38Z</time></trkpt><trkpt lat="45.6896859641503" lon="11.001112327613264"><ele>1545.0</ele><time>2026-04-25T07:05:39Z</time></trkpt><trkpt lat="45.689784306217014" lon="11.001024990749954"><ele>1545.0</ele><time>2026-04-25T07:05:40Z</time></trkpt><trkpt lat="45.68989946631242" lon="11.000936857525712"><ele>1545.0</ele><time>2026-04-25T07:05:41Z</time></trkpt><trkpt lat="45.69003158828257" lon="11.000866883619606"><ele>1545.0</ele><time>2026-04-25T07:05:42Z</time></trkpt><trkpt lat="45.69017414931482" lon="11.00080526848112"><ele>1545.0</ele><time>2026-04-25T07:05:43Z</time></trkpt><trkpt lat="45.69032467276586" lon="11.000736503065411"><ele>1545.0</ele><time>2026-04-25T07:05:44Z</time></trkpt><trkpt lat="45.69047373793953" lon="11.000667556388745"><ele>1546.25</ele><time>2026-04-25T07:05:45Z</time></trkpt><trkpt lat="45.69061433511788" lon="11.000605393013473"><ele>1547.5</ele><time>2026-04-25T07:05:46Z</time></trkpt><trkpt lat="45.69074501968268" lon="11.000549075535227"><ele>1548.75</ele><time>2026-04-25T07:05:47Z</time></trkpt><trkpt lat="45.69086820179245" lon="11.000496869180513"><ele>1550.0</ele><time>2026-04-25T07:05:48Z</time></trkpt><trkpt lat="45.69098544281703" lon="11.000451088331856"><ele>1551.25</ele><time>2026-04-25T07:05:49Z</time></trkpt><trkpt lat="45.691105755614444" lon="11.000426735301014"><ele>1552.5</ele><time>2026-04-25T07:05:50Z</time></trkpt><trkpt lat="45.691226259574115" lon="11.00044698820854"><ele>1553.75</ele><time>2026-04-25T07:05:51Z</time></trkpt><trkpt lat="45.69133647427614" lon="11.00051625679913"><ele>1555.0</ele><time>2026-04-25T07:05:52Z</time></trkpt><trkpt lat="45.691445798643514" lon="11.000611300121676"><ele>1555.0</ele><time>2026-04-25T07:05:53Z</time></trkpt><trkpt lat="45.691560712059875" lon="11.000698581295831"><ele>1555.0</ele><time>2026-04-25T07:05:54Z</time></trkpt><trkpt lat="45.69168360720595" lon="11.000770229550495"><ele>1555.0</ele><time>2026-04-25T07:05:55Z</time></trkpt><trkpt lat="45.69179663064616" lon="11.000851265900502"><ele>1555.0</ele><time>2026-04-25T07:05:56Z</time></trkpt><trkpt lat="45.691886124019746" lon="11.000953563953905"><ele>1552.75</ele><time>2026-04-25T07:05:57Z</time></trkpt><trkpt lat="45.69196311913034" lon="11.001082312055035"><ele>1550.5</ele><time>2026-04-25T07:05:58Z</time></trkpt><trkpt lat="45.69201037804205" lon="11.001245544215422"><ele>1548.25</ele><time>2026-04-25T07:05:59Z</time></trkpt><trkpt lat="45.69202771960982" lon="11.001424974124404"><ele>1546.0</ele><time>2026-04-25T07:06:00Z</time></trkpt><trkpt lat="45.692031382456555" lon="11.001606326708096"><ele>1548.75</ele><time>2026-04-25T07:06:01Z</time></trkpt><trkpt lat="45.69201965035647" lon="11.001796279967243"><ele>1551.5</ele><time>2026-04-25T07:06:02Z</time></trkpt><trkpt lat="45.69199813238004" lon="11.00198897962581"><ele>1554.25</ele><time>2026-04-25T07:06:03Z</time></trkpt><trkpt lat="45.691973029589604" lon="11.00216514732637"><ele>1557.0</ele><time>2026-04-25T07:06:04Z</time></trkpt><trkpt lat="45.69195496121676" lon="11.002321189025436"><ele>1557.0</ele><time>2026-04-25T07:06:05Z</time></trkpt><trkpt lat="45.69194372355243" lon="11.00245707767999"><ele>1557.0</ele><time>2026-04-25T07:06:06Z</time></trkpt><trkpt lat="45.691924168816314" lon="11.002569198635136"><ele>1557.0</ele><time>2026-04-25T07:06:07Z</time></trkpt><trkpt lat="45.69189595076112" lon="11.002677356903817"><ele>1557.0</ele><time>2026-04-25T07:06:08Z</time></trkpt><trkpt lat="45.691855044153634" lon="11.002762976108754"><ele>1557.0</ele><time>2026-04-25T07:06:09Z</time></trkpt><trkpt lat="45.691778331553394" lon="11.002873559826126"><ele>1557.0</ele><time>2026-04-25T07:06:11Z</time></trkpt><trkpt lat="45.69181471465287" lon="11.002972870081518"><ele>1557.8333333333333</ele><time>2026-04-25T07:06:14Z</time></trkpt><trkpt lat="45.69191232253492" lon="11.002900494066136"><ele>1558.6666666666665</ele><time>2026-04-25T07:06:16Z</time></trkpt><trkpt lat="45.69195668559912" lon="11.002829405163366"><ele>1559.5</ele><time>2026-04-25T07:06:17Z</time></trkpt><trkpt lat="45.69205725167402" lon="11.002718591029662"><ele>1560.3333333333333</ele><time>2026-04-25T07:06:19Z</time></trkpt><trkpt lat="45.69211877144543" lon="11.002666806554899"><ele>1561.1666666666665</ele><time>2026-04-25T07:06:20Z</time></trkpt><trkpt lat="45.69218418320437" lon="11.002626291766177"><ele>1562.0</ele><time>2026-04-25T07:06:21Z</time></trkpt><trkpt lat="45.69225593257483" lon="11.002600157146352"><ele>1562.2857142857142</ele><time>2026-04-25T07:06:22Z</time></trkpt><trkpt lat="45.69233341792855" lon="11.002589662531257"><ele>1562.5714285714287</ele><time>2026-04-25T07:06:23Z</time></trkpt><trkpt lat="45.69240084756387" lon="11.002594325398844"><ele>1562.8571428571427</ele><time>2026-04-25T07:06:24Z</time></trkpt><trkpt lat="45.692468349015336" lon="11.00260143214575"><ele>1563.142857142857</ele><time>2026-04-25T07:06:25Z</time></trkpt><trkpt lat="45.6925320933472" lon="11.002618448689388"><ele>1563.4285714285713</ele><time>2026-04-25T07:06:26Z</time></trkpt><trkpt lat="45.692634141059685" lon="11.002641232295458"><ele>1563.7142857142856</ele><time>2026-04-25T07:06:28Z</time></trkpt><trkpt lat="45.69269714544204" lon="11.002657876927247"><ele>1564.0</ele><time>2026-04-25T07:06:29Z</time></trkpt><trkpt lat="45.69278260001655" lon="11.002690225776075"><ele>1564.0000000000002</ele><time>2026-04-25T07:06:30Z</time></trkpt><trkpt lat="45.69285976815346" lon="11.002743991316123"><ele>1564.0</ele><time>2026-04-25T07:06:31Z</time></trkpt><trkpt lat="45.692936497913976" lon="11.002820836607883"><ele>1564.0</ele><time>2026-04-25T07:06:32Z</time></trkpt><trkpt lat="45.69300330702382" lon="11.002904240326492"><ele>1564.0</ele><time>2026-04-25T07:06:33Z</time></trkpt><trkpt lat="45.693066255471805" lon="11.002990147361915"><ele>1564.0000000000002</ele><time>2026-04-25T07:06:34Z</time></trkpt><trkpt lat="45.69311096101711" lon="11.003085079745816"><ele>1564.0</ele><time>2026-04-25T07:06:35Z</time></trkpt><trkpt lat="45.69313175991967" lon="11.003191695619726"><ele>1565.6</ele><time>2026-04-25T07:06:36Z</time></trkpt><trkpt lat="45.69314765517641" lon="11.0033313223954"><ele>1567.2</ele><time>2026-04-25T07:06:37Z</time></trkpt><trkpt lat="45.69315390712078" lon="11.003466089570326"><ele>1568.8</ele><time>2026-04-25T07:06:38Z</time></trkpt><trkpt lat="45.69316098417201" lon="11.00359556043753"><ele>1570.3999999999999</ele><time>2026-04-25T07:06:39Z</time></trkpt><trkpt lat="45.69316979369836" lon="11.003745953005492"><ele>1572.0</ele><time>2026-04-25T07:06:40Z</time></trkpt><trkpt lat="45.693167015078025" lon="11.003886114944205"><ele>1572.0</ele><time>2026-04-25T07:06:41Z</time></trkpt><trkpt lat="45.69315904494039" lon="11.004003721196003"><ele>1572.0</ele><time>2026-04-25T07:06:42Z</time></trkpt><trkpt lat="45.69315345315711" lon="11.004153535325248"><ele>1572.0</ele><time>2026-04-25T07:06:43Z</time></trkpt><trkpt lat="45.69314971455332" lon="11.004294226136725"><ele>1572.0</ele><time>2026-04-25T07:06:44Z</time></trkpt><trkpt lat="45.69315860921322" lon="11.004408476850607"><ele>1572.0</ele><time>2026-04-25T07:06:45Z</time></trkpt><trkpt lat="45.6931795918385" lon="11.004519691194094"><ele>1572.0</ele><time>2026-04-25T07:06:46Z</time></trkpt><trkpt lat="45.69320959898552" lon="11.004607776260565"><ele>1573.3333333333333</ele><time>2026-04-25T07:06:47Z</time></trkpt><trkpt lat="45.69324888909071" lon="11.004678463080813"><ele>1574.6666666666665</ele><time>2026-04-25T07:06:48Z</time></trkpt><trkpt lat="45.693298694222655" lon="11.004756540151742"><ele>1576.0</ele><time>2026-04-25T07:06:49Z</time></trkpt><trkpt lat="45.69336965860668" lon="11.004836222834493"><ele>1577.3333333333333</ele><time>2026-04-25T07:06:50Z</time></trkpt><trkpt lat="45.69345087495852" lon="11.00491613358309"><ele>1578.6666666666665</ele><time>2026-04-25T07:06:51Z</time></trkpt><trkpt lat="45.69354203895634" lon="11.004987891215045"><ele>1580.0</ele><time>2026-04-25T07:06:52Z</time></trkpt><trkpt lat="45.693642030084874" lon="11.005033333757638"><ele>1580.4</ele><time>2026-04-25T07:06:53Z</time></trkpt><trkpt lat="45.69373986691709" lon="11.005073485419757"><ele>1580.8</ele><time>2026-04-25T07:06:54Z</time></trkpt><trkpt lat="45.69384295928212" lon="11.005113237178476"><ele>1581.1999999999998</ele><time>2026-04-25T07:06:55Z</time></trkpt><trkpt lat="45.693930088428985" lon="11.00514236267625"><ele>1581.6</ele><time>2026-04-25T07:06:56Z</time></trkpt><trkpt lat="45.69402044058165" lon="11.0051630547907"><ele>1582.0</ele><time>2026-04-25T07:06:57Z</time></trkpt><trkpt lat="45.694118469133905" lon="11.005180286143215"><ele>1582.0000000000002</ele><time>2026-04-25T07:06:58Z</time></trkpt><trkpt lat="45.69420750091079" lon="11.005194369227555"><ele>1582.0</ele><time>2026-04-25T07:06:59Z</time></trkpt><trkpt lat="45.69428361221981" lon="11.005210375572627"><ele>1582.0</ele><time>2026-04-25T07:07:00Z</time></trkpt><trkpt lat="45.6943620607409" lon="11.005243756108598"><ele>1582.0</ele><time>2026-04-25T07:07:01Z</time></trkpt><trkpt lat="45.694438908665234" lon="11.005279254488176"><ele>1582.0000000000002</ele><time>2026-04-25T07:07:02Z</time></trkpt><trkpt lat="45.69450744645298" lon="11.005325421629014"><ele>1582.0</ele><time>2026-04-25T07:07:03Z</time></trkpt><trkpt lat="45.69457779718272" lon="11.005390926261"><ele>1582.6</ele><time>2026-04-25T07:07:04Z</time></trkpt><trkpt lat="45.694648925495066" lon="11.005462119271378"><ele>1583.1999999999998</ele><time>2026-04-25T07:07:05Z</time></trkpt><trkpt lat="45.694729299428786" lon="11.00554350741498"><ele>1583.8</ele><time>2026-04-25T07:07:06Z</time></trkpt><trkpt lat="45.694798682971914" lon="11.005616057460896"><ele>1584.4</ele><time>2026-04-25T07:07:07Z</time></trkpt><trkpt lat="45.694877695776555" lon="11.0057019607732"><ele>1585.0</ele><time>2026-04-25T07:07:08Z</time></trkpt><trkpt lat="45.694956429930656" lon="11.005789886659693"><ele>1586.5</ele><time>2026-04-25T07:07:09Z</time></trkpt><trkpt lat="45.69503928135095" lon="11.00587989955808"><ele>1588.0</ele><time>2026-04-25T07:07:10Z</time></trkpt><trkpt lat="45.69512929060193" lon="11.00599024058763"><ele>1589.5</ele><time>2026-04-25T07:07:11Z</time></trkpt><trkpt lat="45.69521530511793" lon="11.006102250836634"><ele>1591.0</ele><time>2026-04-25T07:07:12Z</time></trkpt><trkpt lat="45.69530568939044" lon="11.006208294928303"><ele>1591.0</ele><time>2026-04-25T07:07:13Z</time></trkpt><trkpt lat="45.695395136742846" lon="11.006305351564349"><ele>1591.0</ele><time>2026-04-25T07:07:14Z</time></trkpt><trkpt lat="45.695484326051805" lon="11.006403617283018"><ele>1591.0</ele><time>2026-04-25T07:07:15Z</time></trkpt><trkpt lat="45.69557074551948" lon="11.006493516226106"><ele>1591.0</ele><time>2026-04-25T07:07:16Z</time></trkpt><trkpt lat="45.69566005475234" lon="11.00657568711313"><ele>1591.0</ele><time>2026-04-25T07:07:17Z</time></trkpt><trkpt lat="45.69574300904328" lon="11.006650237288179"><ele>1591.0</ele><time>2026-04-25T07:07:18Z</time></trkpt><trkpt lat="45.69581928923557" lon="11.006716378258012"><ele>1591.0</ele><time>2026-04-25T07:07:19Z</time></trkpt><trkpt lat="45.69588999350502" lon="11.00678713870632"><ele>1591.0</ele><time>2026-04-25T07:07:20Z</time></trkpt><trkpt lat="45.695962969219394" lon="11.006882348338532"><ele>1591.0</ele><time>2026-04-25T07:07:21Z</time></trkpt><trkpt lat="45.696036159416956" lon="11.006994663339412"><ele>1591.0</ele><time>2026-04-25T07:07:22Z</time></trkpt><trkpt lat="45.69610863302859" lon="11.0071135194517"><ele>1591.0</ele><time>2026-04-25T07:07:23Z</time></trkpt><trkpt lat="45.69618226001938" lon="11.007228427055287"><ele>1591.0</ele><time>2026-04-25T07:07:24Z</time></trkpt><trkpt lat="45.696250785262755" lon="11.007337015752485"><ele>1591.0</ele><time>2026-04-25T07:07:25Z</time></trkpt><trkpt lat="45.69631388909435" lon="11.007436755667497"><ele>1591.0</ele><time>2026-04-25T07:07:26Z</time></trkpt><trkpt lat="45.69637230916607" lon="11.007530265869345"><ele>1591.0</ele><time>2026-04-25T07:07:27Z</time></trkpt><trkpt lat="45.69642246686467" lon="11.007607036889235"><ele>1594.1666666666667</ele><time>2026-04-25T07:07:28Z</time></trkpt><trkpt lat="45.69647725494684" lon="11.0076842547987"><ele>1597.3333333333335</ele><time>2026-04-25T07:07:29Z</time></trkpt><trkpt lat="45.69654084951679" lon="11.007759124611471"><ele>1600.5</ele><time>2026-04-25T07:07:30Z</time></trkpt><trkpt lat="45.69660348646156" lon="11.00782861784355"><ele>1603.6666666666665</ele><time>2026-04-25T07:07:31Z</time></trkpt><trkpt lat="45.69667081953502" lon="11.007892629002814"><ele>1606.8333333333333</ele><time>2026-04-25T07:07:32Z</time></trkpt><trkpt lat="45.69674019698797" lon="11.007946485699575"><ele>1610.0</ele><time>2026-04-25T07:07:33Z</time></trkpt><trkpt lat="45.69680439819592" lon="11.00801053141475"><ele>1609.9999999999998</ele><time>2026-04-25T07:07:34Z</time></trkpt><trkpt lat="45.69687598947466" lon="11.008041311471082"><ele>1610.0</ele><time>2026-04-25T07:07:35Z</time></trkpt><trkpt lat="45.696944510724535" lon="11.008056655921887"><ele>1610.0</ele><time>2026-04-25T07:07:36Z</time></trkpt><trkpt lat="45.69701202459965" lon="11.008066086297458"><ele>1610.0</ele><time>2026-04-25T07:07:37Z</time></trkpt><trkpt lat="45.69708534473752" lon="11.008070974293567"><ele>1609.9999999999998</ele><time>2026-04-25T07:07:38Z</time></trkpt><trkpt lat="45.69716966182786" lon="11.008069645418372"><ele>1610.0</ele><time>2026-04-25T07:07:39Z</time></trkpt><trkpt lat="45.69726035469444" lon="11.008060965399007"><ele>1610.0</ele><time>2026-04-25T07:07:40Z</time></trkpt><trkpt lat="45.697357561974" lon="11.008059706891846"><ele>1610.0</ele><time>2026-04-25T07:07:41Z</time></trkpt><trkpt lat="45.69746133326172" lon="11.008057652811239"><ele>1610.0</ele><time>2026-04-25T07:07:42Z</time></trkpt><trkpt lat="45.697567971863286" lon="11.00805991552781"><ele>1610.0</ele><time>2026-04-25T07:07:43Z</time></trkpt><trkpt lat="45.697676040912114" lon="11.008069844948439"><ele>1610.0</ele><time>2026-04-25T07:07:44Z</time></trkpt><trkpt lat="45.697784464324116" lon="11.008066090973422"><ele>1610.0</ele><time>2026-04-25T07:07:45Z</time></trkpt><trkpt lat="45.69789976446225" lon="11.008067410038505"><ele>1610.0</ele><time>2026-04-25T07:07:46Z</time></trkpt><trkpt lat="45.69801669367811" lon="11.008066326439815"><ele>1610.0</ele><time>2026-04-25T07:07:47Z</time></trkpt><trkpt lat="45.698133759486396" lon="11.00806811461797"><ele>1610.0</ele><time>2026-04-25T07:07:48Z</time></trkpt><trkpt lat="45.698249414448256" lon="11.008074941316309"><ele>1610.0</ele><time>2026-04-25T07:07:49Z</time></trkpt><trkpt lat="45.69835785634903" lon="11.00808859176844"><ele>1610.0</ele><time>2026-04-25T07:07:50Z</time></trkpt><trkpt lat="45.698452715152584" lon="11.008102565630846"><ele>1610.0</ele><time>2026-04-25T07:07:51Z</time></trkpt><trkpt lat="45.698542828888066" lon="11.008125603547473"><ele>1610.0</ele><time>2026-04-25T07:07:52Z</time></trkpt><trkpt lat="45.6986329604044" lon="11.008165018540431"><ele>1610.0</ele><time>2026-04-25T07:07:53Z</time></trkpt><trkpt lat="45.69873035318732" lon="11.008226936108427"><ele>1609.0</ele><time>2026-04-25T07:07:54Z</time></trkpt><trkpt lat="45.6988214372078" lon="11.00830324211151"><ele>1608.0</ele><time>2026-04-25T07:07:55Z</time></trkpt><trkpt lat="45.69891888871009" lon="11.008397910360875"><ele>1607.0</ele><time>2026-04-25T07:07:56Z</time></trkpt><trkpt lat="45.69901307910854" lon="11.008492256179323"><ele>1606.0</ele><time>2026-04-25T07:07:57Z</time></trkpt><trkpt lat="45.699106833367864" lon="11.008571612276528"><ele>1605.0</ele><time>2026-04-25T07:07:58Z</time></trkpt><trkpt lat="45.69919497789934" lon="11.008649539274762"><ele>1608.3333333333333</ele><time>2026-04-25T07:07:59Z</time></trkpt><trkpt lat="45.69929302895489" lon="11.008644872628821"><ele>1611.6666666666665</ele><time>2026-04-25T07:08:00Z</time></trkpt><trkpt lat="45.69937927570564" lon="11.008645241491617"><ele>1615.0</ele><time>2026-04-25T07:08:01Z</time></trkpt><trkpt lat="45.6994564167111" lon="11.008627928187359"><ele>1618.3333333333333</ele><time>2026-04-25T07:08:02Z</time></trkpt><trkpt lat="45.699532197015586" lon="11.008599188534026"><ele>1621.6666666666665</ele><time>2026-04-25T07:08:03Z</time></trkpt><trkpt lat="45.699606161048195" lon="11.008605504556796"><ele>1625.0</ele><time>2026-04-25T07:08:04Z</time></trkpt><trkpt lat="45.69967053157089" lon="11.00859659621036"><ele>1625.4999999999998</ele><time>2026-04-25T07:08:05Z</time></trkpt><trkpt lat="45.69973353684482" lon="11.008597488305863"><ele>1626.0</ele><time>2026-04-25T07:08:06Z</time></trkpt><trkpt lat="45.6998030704432" lon="11.00865061712469"><ele>1626.5</ele><time>2026-04-25T07:08:07Z</time></trkpt><trkpt lat="45.69986551964757" lon="11.008718436081487"><ele>1627.0</ele><time>2026-04-25T07:08:08Z</time></trkpt><trkpt lat="45.69993192104164" lon="11.008800016081832"><ele>1627.4999999999998</ele><time>2026-04-25T07:08:09Z</time></trkpt><trkpt lat="45.70000914974611" lon="11.00888567529614"><ele>1628.0</ele><time>2026-04-25T07:08:10Z</time></trkpt><trkpt lat="45.70009274578793" lon="11.008976717002687"><ele>1628.0</ele><time>2026-04-25T07:08:11Z</time></trkpt><trkpt lat="45.70017894030327" lon="11.009075364699259"><ele>1628.0</ele><time>2026-04-25T07:08:12Z</time></trkpt><trkpt lat="45.700263741413195" lon="11.009178664606203"><ele>1628.0</ele><time>2026-04-25T07:08:13Z</time></trkpt><trkpt lat="45.700343844873714" lon="11.009272427404138"><ele>1628.0</ele><time>2026-04-25T07:08:14Z</time></trkpt><trkpt lat="45.70042798087053" lon="11.0093557338382"><ele>1628.0</ele><time>2026-04-25T07:08:15Z</time></trkpt><trkpt lat="45.700507007340164" lon="11.009412300110684"><ele>1630.0</ele><time>2026-04-25T07:08:16Z</time></trkpt><trkpt lat="45.70059626523936" lon="11.009444026288392"><ele>1632.0</ele><time>2026-04-25T07:08:17Z</time></trkpt><trkpt lat="45.700695934787824" lon="11.009461104322137"><ele>1634.0</ele><time>2026-04-25T07:08:18Z</time></trkpt><trkpt lat="45.70079945819075" lon="11.009469507950447"><ele>1636.0</ele><time>2026-04-25T07:08:19Z</time></trkpt><trkpt lat="45.700898761547265" lon="11.00948688474092"><ele>1638.0</ele><time>2026-04-25T07:08:20Z</time></trkpt><trkpt lat="45.700976045049714" lon="11.00955031674488"><ele>1638.0</ele><time>2026-04-25T07:08:21Z</time></trkpt><trkpt lat="45.701041548040195" lon="11.00958464007837"><ele>1638.0</ele><time>2026-04-25T07:08:22Z</time></trkpt><trkpt lat="45.70112196413851" lon="11.009653115347529"><ele>1638.0</ele><time>2026-04-25T07:08:24Z</time></trkpt><trkpt lat="45.70118120281712" lon="11.00970054572803"><ele>1638.0</ele><time>2026-04-25T07:08:27Z</time></trkpt><trkpt lat="45.70111314828577" lon="11.009574375326027"><ele>1638.0</ele><time>2026-04-25T07:08:33Z</time></trkpt><trkpt lat="45.70100605990954" lon="11.009542120114421"><ele>1638.0</ele><time>2026-04-25T07:08:34Z</time></trkpt><trkpt lat="45.7008835787478" lon="11.009497604064077"><ele>1638.0</ele><time>2026-04-25T07:08:35Z</time></trkpt><trkpt lat="45.700754457859084" lon="11.009458570209812"><ele>1638.0</ele><time>2026-04-25T07:08:36Z</time></trkpt><trkpt lat="45.70063082336313" lon="11.009406759253219"><ele>1638.0</ele><time>2026-04-25T07:08:37Z</time></trkpt><trkpt lat="45.700520264195255" lon="11.009376968678556"><ele>1638.0</ele><time>2026-04-25T07:08:38Z</time></trkpt><trkpt lat="45.70042267221277" lon="11.009313233105978"><ele>1638.0</ele><time>2026-04-25T07:08:39Z</time></trkpt><trkpt lat="45.700328578153815" lon="11.009206834179766"><ele>1638.0</ele><time>2026-04-25T07:08:40Z</time></trkpt><trkpt lat="45.700237626518565" lon="11.00909503748954"><ele>1638.0</ele><time>2026-04-25T07:08:41Z</time></trkpt><trkpt lat="45.700152245564965" lon="11.00899101587317"><ele>1636.0</ele><time>2026-04-25T07:08:42Z</time></trkpt><trkpt lat="45.70006340220704" lon="11.008888671607854"><ele>1634.0</ele><time>2026-04-25T07:08:43Z</time></trkpt><trkpt lat="45.69996792346539" lon="11.008814357513522"><ele>1632.0</ele><time>2026-04-25T07:08:44Z</time></trkpt><trkpt lat="45.69988390838295" lon="11.008728895282903"><ele>1630.0</ele><time>2026-04-25T07:08:45Z</time></trkpt><trkpt lat="45.6998045358345" lon="11.008644883784322"><ele>1628.0</ele><time>2026-04-25T07:08:46Z</time></trkpt><trkpt lat="45.69972687489695" lon="11.008582621462402"><ele>1628.0</ele><time>2026-04-25T07:08:47Z</time></trkpt><trkpt lat="45.699649584235026" lon="11.008554102714943"><ele>1628.0</ele><time>2026-04-25T07:08:48Z</time></trkpt><trkpt lat="45.69955899303286" lon="11.008563475756503"><ele>1628.0</ele><time>2026-04-25T07:08:49Z</time></trkpt><trkpt lat="45.69945907282503" lon="11.0085988201659"><ele>1628.0</ele><time>2026-04-25T07:08:50Z</time></trkpt><trkpt lat="45.69936096321235" lon="11.008604601814023"><ele>1628.0</ele><time>2026-04-25T07:08:51Z</time></trkpt><trkpt lat="45.69927548690436" lon="11.00863597702262"><ele>1627.25</ele><time>2026-04-25T07:08:52Z</time></trkpt><trkpt lat="45.699186640253906" lon="11.008604531094324"><ele>1626.5</ele><time>2026-04-25T07:08:53Z</time></trkpt><trkpt lat="45.699082558411156" lon="11.00854096557007"><ele>1625.75</ele><time>2026-04-25T07:08:54Z</time></trkpt><trkpt lat="45.69897498394898" lon="11.008447741206194"><ele>1625.0</ele><time>2026-04-25T07:08:55Z</time></trkpt><trkpt lat="45.698882532110005" lon="11.008324829669869"><ele>1622.0</ele><time>2026-04-25T07:08:56Z</time></trkpt><trkpt lat="45.698780939580274" lon="11.00825424568165"><ele>1619.0</ele><time>2026-04-25T07:08:57Z</time></trkpt><trkpt lat="45.698688954987304" lon="11.008180496009471"><ele>1616.0</ele><time>2026-04-25T07:08:58Z</time></trkpt><trkpt lat="45.69859798913803" lon="11.008123742190122"><ele>1613.0</ele><time>2026-04-25T07:08:59Z</time></trkpt><trkpt lat="45.69851451135394" lon="11.008088915408536"><ele>1610.0</ele><time>2026-04-25T07:09:00Z</time></trkpt><trkpt lat="45.69843966648475" lon="11.00806733617765"><ele>1610.0</ele><time>2026-04-25T07:09:01Z</time></trkpt><trkpt lat="45.69835867301817" lon="11.008058858176408"><ele>1610.0</ele><time>2026-04-25T07:09:02Z</time></trkpt><trkpt lat="45.69826636345036" lon="11.008068955129444"><ele>1610.0</ele><time>2026-04-25T07:09:03Z</time></trkpt><trkpt lat="45.69817072751615" lon="11.008042380086392"><ele>1610.0</ele><time>2026-04-25T07:09:04Z</time></trkpt><trkpt lat="45.69807839059278" lon="11.008039481768174"><ele>1610.0</ele><time>2026-04-25T07:09:05Z</time></trkpt><trkpt lat="45.69798378966635" lon="11.008038416839542"><ele>1610.0</ele><time>2026-04-25T07:09:06Z</time></trkpt><trkpt lat="45.69787976180765" lon="11.008037245792327"><ele>1610.0</ele><time>2026-04-25T07:09:07Z</time></trkpt><trkpt lat="45.6977673341168" lon="11.008035980187216"><ele>1610.0</ele><time>2026-04-25T07:09:08Z</time></trkpt><trkpt lat="45.69765033765757" lon="11.008052056061194"><ele>1610.0</ele><time>2026-04-25T07:09:09Z</time></trkpt><trkpt lat="45.69754094520542" lon="11.008044258105574"><ele>1610.0</ele><time>2026-04-25T07:09:10Z</time></trkpt><trkpt lat="45.69743949507302" lon="11.008038286075992"><ele>1609.4</ele><time>2026-04-25T07:09:11Z</time></trkpt><trkpt lat="45.697338380516335" lon="11.008034897539895"><ele>1608.8</ele><time>2026-04-25T07:09:12Z</time></trkpt><trkpt lat="45.69724314147286" lon="11.008032620369828"><ele>1608.1999999999998</ele><time>2026-04-25T07:09:13Z</time></trkpt><trkpt lat="45.69714974940196" lon="11.008028415491125"><ele>1607.6</ele><time>2026-04-25T07:09:14Z</time></trkpt><trkpt lat="45.69706049175372" lon="11.008022274641487"><ele>1607.0</ele><time>2026-04-25T07:09:15Z</time></trkpt><trkpt lat="45.696971051653044" lon="11.008009850919581"><ele>1607.6</ele><time>2026-04-25T07:09:16Z</time></trkpt><trkpt lat="45.69688398212118" lon="11.00799062789478"><ele>1608.1999999999998</ele><time>2026-04-25T07:09:17Z</time></trkpt><trkpt lat="45.69679856861534" lon="11.007960140636992"><ele>1608.8</ele><time>2026-04-25T07:09:18Z</time></trkpt><trkpt lat="45.69670936223497" lon="11.007912887794754"><ele>1609.4</ele><time>2026-04-25T07:09:19Z</time></trkpt><trkpt lat="45.69664189928939" lon="11.007824731946862"><ele>1610.0</ele><time>2026-04-25T07:09:20Z</time></trkpt><trkpt lat="45.69656391740698" lon="11.007764872867766"><ele>1609.9999999999998</ele><time>2026-04-25T07:09:21Z</time></trkpt><trkpt lat="45.696499067256305" lon="11.007675111831837"><ele>1610.0</ele><time>2026-04-25T07:09:22Z</time></trkpt><trkpt lat="45.69643647589315" lon="11.00759063148015"><ele>1610.0</ele><time>2026-04-25T07:09:23Z</time></trkpt><trkpt lat="45.69637881095932" lon="11.007508393440881"><ele>1610.0</ele><time>2026-04-25T07:09:24Z</time></trkpt><trkpt lat="45.696326473560525" lon="11.007427654771272"><ele>1609.9999999999998</ele><time>2026-04-25T07:09:25Z</time></trkpt><trkpt lat="45.69626985676485" lon="11.0073414400994"><ele>1610.0</ele><time>2026-04-25T07:09:26Z</time></trkpt><trkpt lat="45.696211957686366" lon="11.00724784855665"><ele>1608.8</ele><time>2026-04-25T07:09:27Z</time></trkpt><trkpt lat="45.696159902586864" lon="11.00713415611984"><ele>1607.6</ele><time>2026-04-25T07:09:28Z</time></trkpt><trkpt lat="45.69608949822418" lon="11.007051828386164"><ele>1606.4</ele><time>2026-04-25T07:09:29Z</time></trkpt><trkpt lat="45.69602736116113" lon="11.006953054097167"><ele>1605.2</ele><time>2026-04-25T07:09:30Z</time></trkpt><trkpt lat="45.695966110682484" lon="11.006850798133271"><ele>1604.0</ele><time>2026-04-25T07:09:31Z</time></trkpt><trkpt lat="45.69590246223898" lon="11.00676401204156"><ele>1604.0</ele><time>2026-04-25T07:09:32Z</time></trkpt><trkpt lat="45.69583669829972" lon="11.006688737266911"><ele>1604.0</ele><time>2026-04-25T07:09:33Z</time></trkpt><trkpt lat="45.69577280450384" lon="11.006626500793361"><ele>1604.0</ele><time>2026-04-25T07:09:34Z</time></trkpt><trkpt lat="45.69570583956661" lon="11.00657496590432"><ele>1604.0</ele><time>2026-04-25T07:09:35Z</time></trkpt><trkpt lat="45.69561475083479" lon="11.006506224361134"><ele>1604.0</ele><time>2026-04-25T07:09:36Z</time></trkpt><trkpt lat="45.695514154488784" lon="11.006380129456748"><ele>1602.5</ele><time>2026-04-25T07:09:37Z</time></trkpt><trkpt lat="45.69539234686147" lon="11.006275225797268"><ele>1601.0</ele><time>2026-04-25T07:09:38Z</time></trkpt><trkpt lat="45.695292318822595" lon="11.006161084265385"><ele>1599.5</ele><time>2026-04-25T07:09:39Z</time></trkpt><trkpt lat="45.695197891198696" lon="11.00604949498258"><ele>1598.0</ele><time>2026-04-25T07:09:40Z</time></trkpt><trkpt lat="45.69511616240643" lon="11.005940933396902"><ele>1598.0</ele><time>2026-04-25T07:09:41Z</time></trkpt><trkpt lat="45.69503164965131" lon="11.005843991449586"><ele>1598.0</ele><time>2026-04-25T07:09:42Z</time></trkpt><trkpt lat="45.69495075944753" lon="11.005737909194643"><ele>1598.0</ele><time>2026-04-25T07:09:43Z</time></trkpt><trkpt lat="45.694860262064864" lon="11.005651235359565"><ele>1598.0</ele><time>2026-04-25T07:09:44Z</time></trkpt><trkpt lat="45.69477383216553" lon="11.00555412406898"><ele>1598.0</ele><time>2026-04-25T07:09:45Z</time></trkpt><trkpt lat="45.694682092035535" lon="11.005462312875059"><ele>1595.4</ele><time>2026-04-25T07:09:46Z</time></trkpt><trkpt lat="45.69459159401581" lon="11.005374642252036"><ele>1592.8000000000002</ele><time>2026-04-25T07:09:47Z</time></trkpt><trkpt lat="45.694495202707934" lon="11.005297136880547"><ele>1590.2</ele><time>2026-04-25T07:09:48Z</time></trkpt><trkpt lat="45.69440145081764" lon="11.00524115189643"><ele>1587.6</ele><time>2026-04-25T07:09:49Z</time></trkpt><trkpt lat="45.69429413359089" lon="11.005195604160459"><ele>1585.0</ele><time>2026-04-25T07:09:50Z</time></trkpt><trkpt lat="45.694172329146575" lon="11.005167637425178"><ele>1584.4</ele><time>2026-04-25T07:09:51Z</time></trkpt><trkpt lat="45.694057066829316" lon="11.005123589399249"><ele>1583.8</ele><time>2026-04-25T07:09:52Z</time></trkpt><trkpt lat="45.693945866879794" lon="11.005102698880343"><ele>1583.1999999999998</ele><time>2026-04-25T07:09:53Z</time></trkpt><trkpt lat="45.69384039519501" lon="11.005095672548075"><ele>1582.6</ele><time>2026-04-25T07:09:54Z</time></trkpt><trkpt lat="45.693740560958" lon="11.005059018772991"><ele>1582.0</ele><time>2026-04-25T07:09:55Z</time></trkpt><trkpt lat="45.69364521699966" lon="11.00501313912253"><ele>1581.6</ele><time>2026-04-25T07:09:56Z</time></trkpt><trkpt lat="45.693551971344384" lon="11.00495774643837"><ele>1581.1999999999998</ele><time>2026-04-25T07:09:57Z</time></trkpt><trkpt lat="45.693467821900285" lon="11.004902546796933"><ele>1580.8</ele><time>2026-04-25T07:09:58Z</time></trkpt><trkpt lat="45.69338793791433" lon="11.00483547112946"><ele>1580.4</ele><time>2026-04-25T07:09:59Z</time></trkpt><trkpt lat="45.69331951008413" lon="11.004756154175242"><ele>1580.0</ele><time>2026-04-25T07:10:00Z</time></trkpt><trkpt lat="45.693258192628775" lon="11.00465426557926"><ele>1580.0</ele><time>2026-04-25T07:10:01Z</time></trkpt><trkpt lat="45.69320774166049" lon="11.004548936455068"><ele>1580.0</ele><time>2026-04-25T07:10:02Z</time></trkpt><trkpt lat="45.69317418382393" lon="11.004431175180985"><ele>1580.0</ele><time>2026-04-25T07:10:03Z</time></trkpt><trkpt lat="45.69318205250003" lon="11.004293981072207"><ele>1580.0</ele><time>2026-04-25T07:10:04Z</time></trkpt><trkpt lat="45.69318229462816" lon="11.004149797669433"><ele>1580.0</ele><time>2026-04-25T07:10:05Z</time></trkpt><trkpt lat="45.6931705180872" lon="11.003988380664698"><ele>1578.6666666666665</ele><time>2026-04-25T07:10:06Z</time></trkpt><trkpt lat="45.69319412508715" lon="11.003859059239511"><ele>1577.3333333333333</ele><time>2026-04-25T07:10:07Z</time></trkpt><trkpt lat="45.693196190421766" lon="11.003737965640717"><ele>1576.0</ele><time>2026-04-25T07:10:08Z</time></trkpt><trkpt lat="45.693196440743954" lon="11.003627036628268"><ele>1574.6666666666665</ele><time>2026-04-25T07:10:09Z</time></trkpt><trkpt lat="45.69318917078112" lon="11.00350872437225"><ele>1573.3333333333333</ele><time>2026-04-25T07:10:10Z</time></trkpt><trkpt lat="45.69317760044127" lon="11.003366323797303"><ele>1572.0</ele><time>2026-04-25T07:10:11Z</time></trkpt><trkpt lat="45.69316116341567" lon="11.003245149066089"><ele>1570.6666666666667</ele><time>2026-04-25T07:10:12Z</time></trkpt><trkpt lat="45.693145855148224" lon="11.003153761962345"><ele>1569.3333333333335</ele><time>2026-04-25T07:10:13Z</time></trkpt><trkpt lat="45.69312198080155" lon="11.003045248459769"><ele>1568.0</ele><time>2026-04-25T07:10:14Z</time></trkpt><trkpt lat="45.69307334442444" lon="11.002935941347085"><ele>1566.6666666666667</ele><time>2026-04-25T07:10:15Z</time></trkpt><trkpt lat="45.69298218270021" lon="11.0028509237293"><ele>1565.3333333333335</ele><time>2026-04-25T07:10:16Z</time></trkpt><trkpt lat="45.69290355824904" lon="11.002776265278143"><ele>1564.0</ele><time>2026-04-25T07:10:17Z</time></trkpt><trkpt lat="45.69282287000593" lon="11.002707690523224"><ele>1564.6666666666667</ele><time>2026-04-25T07:10:18Z</time></trkpt><trkpt lat="45.69274887499867" lon="11.002653584361779"><ele>1565.3333333333335</ele><time>2026-04-25T07:10:19Z</time></trkpt><trkpt lat="45.69266348573649" lon="11.00262017948579"><ele>1566.0</ele><time>2026-04-25T07:10:20Z</time></trkpt><trkpt lat="45.69256769892925" lon="11.002599327656606"><ele>1566.6666666666665</ele><time>2026-04-25T07:10:21Z</time></trkpt><trkpt lat="45.692474678660446" lon="11.002580893077113"><ele>1567.3333333333333</ele><time>2026-04-25T07:10:22Z</time></trkpt><trkpt lat="45.69239225503949" lon="11.002566244548"><ele>1568.0</ele><time>2026-04-25T07:10:23Z</time></trkpt><trkpt lat="45.69231208439578" lon="11.002561300932632"><ele>1567.9999999999998</ele><time>2026-04-25T07:10:24Z</time></trkpt><trkpt lat="45.692227084721054" lon="11.002578360344602"><ele>1568.0</ele><time>2026-04-25T07:10:25Z</time></trkpt><trkpt lat="45.692148637300534" lon="11.002615492216512"><ele>1568.0</ele><time>2026-04-25T07:10:26Z</time></trkpt><trkpt lat="45.69208429724489" lon="11.002673541525617"><ele>1568.0</ele><time>2026-04-25T07:10:27Z</time></trkpt><trkpt lat="45.69202921644807" lon="11.002737517106569"><ele>1567.9999999999998</ele><time>2026-04-25T07:10:28Z</time></trkpt><trkpt lat="45.69197521643574" lon="11.00279780585103"><ele>1568.0</ele><time>2026-04-25T07:10:29Z</time></trkpt><trkpt lat="45.69188379025821" lon="11.002885652003481"><ele>1567.9999999999998</ele><time>2026-04-25T07:10:31Z</time></trkpt><trkpt lat="45.691817389817736" lon="11.002905349990519"><ele>1568.0</ele><time>2026-04-25T07:10:33Z</time></trkpt><trkpt lat="45.691866459295326" lon="11.002812651657466"><ele>1568.0</ele><time>2026-04-25T07:10:35Z</time></trkpt><trkpt lat="45.691910264463196" lon="11.002724191257954"><ele>1568.0</ele><time>2026-04-25T07:10:36Z</time></trkpt><trkpt lat="45.69194729476955" lon="11.00260770396068"><ele>1567.9999999999998</ele><time>2026-04-25T07:10:37Z</time></trkpt><trkpt lat="45.69196559051267" lon="11.002472887167688"><ele>1568.0</ele><time>2026-04-25T07:10:38Z</time></trkpt><trkpt lat="45.69198201135143" lon="11.002328215726518"><ele>1565.8000000000002</ele><time>2026-04-25T07:10:39Z</time></trkpt><trkpt lat="45.69199721854031" lon="11.002191005453163"><ele>1563.6</ele><time>2026-04-25T07:10:40Z</time></trkpt><trkpt lat="45.69201288945203" lon="11.00205096957664"><ele>1561.4</ele><time>2026-04-25T07:10:41Z</time></trkpt><trkpt lat="45.69203102814453" lon="11.001912228985546"><ele>1559.1999999999998</ele><time>2026-04-25T07:10:42Z</time></trkpt><trkpt lat="45.69204836547375" lon="11.001779617990799"><ele>1557.0</ele><time>2026-04-25T07:10:43Z</time></trkpt><trkpt lat="45.69205688330869" lon="11.001645263393378"><ele>1556.0</ele><time>2026-04-25T07:10:44Z</time></trkpt><trkpt lat="45.69205904079894" lon="11.001514383309788"><ele>1555.0</ele><time>2026-04-25T07:10:45Z</time></trkpt><trkpt lat="45.69205281209531" lon="11.001382890189344"><ele>1554.0</ele><time>2026-04-25T07:10:46Z</time></trkpt><trkpt lat="45.692037355482434" lon="11.001240256809083"><ele>1553.0</ele><time>2026-04-25T07:10:47Z</time></trkpt><trkpt lat="45.69199442801689" lon="11.001088058651229"><ele>1552.0</ele><time>2026-04-25T07:10:48Z</time></trkpt><trkpt lat="45.69191688547264" lon="11.000945120511382"><ele>1552.0</ele><time>2026-04-25T07:10:49Z</time></trkpt><trkpt lat="45.691811439981166" lon="11.000834176312734"><ele>1552.0</ele><time>2026-04-25T07:10:50Z</time></trkpt><trkpt lat="45.69167822182152" lon="11.00076555627226"><ele>1552.0</ele><time>2026-04-25T07:10:51Z</time></trkpt><trkpt lat="45.69155303502411" lon="11.000658934425973"><ele>1552.0</ele><time>2026-04-25T07:10:52Z</time></trkpt><trkpt lat="45.69142712488188" lon="11.000573918587655"><ele>1551.5</ele><time>2026-04-25T07:10:53Z</time></trkpt><trkpt lat="45.691314035551706" lon="11.000481115897726"><ele>1551.0</ele><time>2026-04-25T07:10:54Z</time></trkpt><trkpt lat="45.69119369881716" lon="11.000414370094349"><ele>1550.5</ele><time>2026-04-25T07:10:55Z</time></trkpt><trkpt lat="45.69106218894025" lon="11.000411476441082"><ele>1550.0</ele><time>2026-04-25T07:10:56Z</time></trkpt><trkpt lat="45.69092367222904" lon="11.000457314913442"><ele>1550.0</ele><time>2026-04-25T07:10:57Z</time></trkpt><trkpt lat="45.690776528425985" lon="11.000517524855711"><ele>1550.0</ele><time>2026-04-25T07:10:58Z</time></trkpt><trkpt lat="45.69063272314291" lon="11.000595494841418"><ele>1550.0</ele><time>2026-04-25T07:10:59Z</time></trkpt><trkpt lat="45.69047229744919" lon="11.000668271584948"><ele>1550.0</ele><time>2026-04-25T07:11:00Z</time></trkpt><trkpt lat="45.69032070866734" lon="11.000744811876444"><ele>1550.0</ele><time>2026-04-25T07:11:01Z</time></trkpt><trkpt lat="45.69017658687274" lon="11.000813574947072"><ele>1550.0</ele><time>2026-04-25T07:11:02Z</time></trkpt><trkpt lat="45.69003890639965" lon="11.000881758108454"><ele>1548.75</ele><time>2026-04-25T07:11:03Z</time></trkpt><trkpt lat="45.68990939461556" lon="11.000956346588602"><ele>1547.5</ele><time>2026-04-25T07:11:04Z</time></trkpt><trkpt lat="45.68978583943072" lon="11.001033763682832"><ele>1546.25</ele><time>2026-04-25T07:11:05Z</time></trkpt><trkpt lat="45.68968463986981" lon="11.001104237503322"><ele>1545.0</ele><time>2026-04-25T07:11:06Z</time></trkpt><trkpt lat="45.68959278897406" lon="11.001136139146185"><ele>1545.0</ele><time>2026-04-25T07:11:07Z</time></trkpt><trkpt lat="45.68950318260622" lon="11.001138678036666"><ele>1545.0</ele><time>2026-04-25T07:11:08Z</time></trkpt><trkpt lat="45.68941830551591" lon="11.001094942143139"><ele>1545.0</ele><time>2026-04-25T07:11:09Z</time></trkpt><trkpt lat="45.68934361617019" lon="11.000996615560174"><ele>1545.0</ele><time>2026-04-25T07:11:10Z</time></trkpt><trkpt lat="45.6893219898662" lon="11.000841701853602"><ele>1545.0</ele><time>2026-04-25T07:11:11Z</time></trkpt><trkpt lat="45.689251710619864" lon="11.000716076433871"><ele>1545.0</ele><time>2026-04-25T07:11:12Z</time></trkpt><trkpt lat="45.6891570391368" lon="11.000609376093786"><ele>1545.0</ele><time>2026-04-25T07:11:13Z</time></trkpt><trkpt lat="45.68903321391204" lon="11.000523203314389"><ele>1545.0</ele><time>2026-04-25T07:11:14Z</time></trkpt><trkpt lat="45.68892089133944" lon="11.000405506956609"><ele>1545.0</ele><time>2026-04-25T07:11:15Z</time></trkpt><trkpt lat="45.688798111775334" lon="11.00030958104187"><ele>1545.0</ele><time>2026-04-25T07:11:16Z</time></trkpt><trkpt lat="45.688704753842764" lon="11.000163911316235"><ele>1545.0</ele><time>2026-04-25T07:11:17Z</time></trkpt><trkpt lat="45.688608035916616" lon="11.0000362290138"><ele>1545.0</ele><time>2026-04-25T07:11:18Z</time></trkpt><trkpt lat="45.68851396960446" lon="10.99991620237623"><ele>1545.0</ele><time>2026-04-25T07:11:19Z</time></trkpt><trkpt lat="45.68842436336316" lon="10.999806581173285"><ele>1541.4</ele><time>2026-04-25T07:11:20Z</time></trkpt><trkpt lat="45.6883585392555" lon="10.99968854295267"><ele>1537.8</ele><time>2026-04-25T07:11:21Z</time></trkpt><trkpt lat="45.68832430022057" lon="10.999550003402117"><ele>1534.1999999999998</ele><time>2026-04-25T07:11:22Z</time></trkpt><trkpt lat="45.68831495048969" lon="10.999387563192894"><ele>1530.6</ele><time>2026-04-25T07:11:23Z</time></trkpt><trkpt lat="45.688315708375875" lon="10.999219231533301"><ele>1527.0</ele><time>2026-04-25T07:11:24Z</time></trkpt><trkpt lat="45.68835228616791" lon="10.999080946765645"><ele>1527.0</ele><time>2026-04-25T07:11:25Z</time></trkpt><trkpt lat="45.68842241121703" lon="10.998974652114146"><ele>1527.0</ele><time>2026-04-25T07:11:26Z</time></trkpt><trkpt lat="45.688529415093534" lon="10.998903096407773"><ele>1527.0</ele><time>2026-04-25T07:11:27Z</time></trkpt><trkpt lat="45.68865401151497" lon="10.99882468059537"><ele>1527.0</ele><time>2026-04-25T07:11:28Z</time></trkpt><trkpt lat="45.68878907161631" lon="10.99873650943394"><ele>1531.6666666666665</ele><time>2026-04-25T07:11:29Z</time></trkpt><trkpt lat="45.688929772998186" lon="10.998640129440926"><ele>1536.3333333333333</ele><time>2026-04-25T07:11:30Z</time></trkpt><trkpt lat="45.689073473813075" lon="10.998541301312146"><ele>1541.0</ele><time>2026-04-25T07:11:31Z</time></trkpt><trkpt lat="45.68921783545524" lon="10.998442018515497"><ele>1541.0</ele><time>2026-04-25T07:11:32Z</time></trkpt><trkpt lat="45.68935253374935" lon="10.998348775605946"><ele>1541.0</ele><time>2026-04-25T07:11:33Z</time></trkpt><trkpt lat="45.689476378846514" lon="10.998261709756308"><ele>1541.0</ele><time>2026-04-25T07:11:34Z</time></trkpt><trkpt lat="45.68958416785368" lon="10.998182917797994"><ele>1541.0</ele><time>2026-04-25T07:11:35Z</time></trkpt><trkpt lat="45.6896668053341" lon="10.998109021195273"><ele>1542.1999999999998</ele><time>2026-04-25T07:11:36Z</time></trkpt><trkpt lat="45.689764851957314" lon="10.998100189160045"><ele>1543.3999999999999</ele><time>2026-04-25T07:11:37Z</time></trkpt><trkpt lat="45.6898634170556" lon="10.998148791280173"><ele>1544.6</ele><time>2026-04-25T07:11:38Z</time></trkpt><trkpt lat="45.68996543799677" lon="10.998237293004125"><ele>1545.8</ele><time>2026-04-25T07:11:39Z</time></trkpt><trkpt lat="45.690073084003075" lon="10.998324591721802"><ele>1547.0</ele><time>2026-04-25T07:11:40Z</time></trkpt><trkpt lat="45.6901835981175" lon="10.998401244899854"><ele>1545.75</ele><time>2026-04-25T07:11:41Z</time></trkpt><trkpt lat="45.690296542543756" lon="10.998475135861712"><ele>1544.5</ele><time>2026-04-25T07:11:42Z</time></trkpt><trkpt lat="45.69042622321369" lon="10.998486143135482"><ele>1543.25</ele><time>2026-04-25T07:11:43Z</time></trkpt><trkpt lat="45.69055664087767" lon="10.99846725358347"><ele>1542.0</ele><time>2026-04-25T07:11:44Z</time></trkpt><trkpt lat="45.69067793248294" lon="10.998443848522998"><ele>1542.0</ele><time>2026-04-25T07:11:45Z</time></trkpt><trkpt lat="45.690785326331955" lon="10.998421415367877"><ele>1542.0</ele><time>2026-04-25T07:11:46Z</time></trkpt><trkpt lat="45.69088595699469" lon="10.998373604468803"><ele>1542.0</ele><time>2026-04-25T07:11:47Z</time></trkpt><trkpt lat="45.6909953305158" lon="10.998352775048213"><ele>1542.0</ele><time>2026-04-25T07:11:48Z</time></trkpt><trkpt lat="45.69108032514607" lon="10.998242166336453"><ele>1542.0</ele><time>2026-04-25T07:11:49Z</time></trkpt><trkpt lat="45.69112716049134" lon="10.99805149229704"><ele>1542.3333333333335</ele><time>2026-04-25T07:11:50Z</time></trkpt><trkpt lat="45.69114276588255" lon="10.997837258198253"><ele>1542.6666666666667</ele><time>2026-04-25T07:11:51Z</time></trkpt><trkpt lat="45.69116156786497" lon="10.997570498470562"><ele>1543.0</ele><time>2026-04-25T07:11:52Z</time></trkpt><trkpt lat="45.691182135955515" lon="10.997342293707968"><ele>1541.3333333333335</ele><time>2026-04-25T07:11:53Z</time></trkpt><trkpt lat="45.69121845207053" lon="10.997193609604942"><ele>1539.6666666666667</ele><time>2026-04-25T07:11:54Z</time></trkpt><trkpt lat="45.69126301889467" lon="10.997125017892165"><ele>1538.0</ele><time>2026-04-25T07:11:55Z</time></trkpt><trkpt lat="45.69132346371941" lon="10.997073279060581"><ele>1536.3333333333335</ele><time>2026-04-25T07:11:56Z</time></trkpt><trkpt lat="45.69139054104973" lon="10.997021899756607"><ele>1534.6666666666667</ele><time>2026-04-25T07:11:57Z</time></trkpt><trkpt lat="45.69148130439779" lon="10.996993952419233"><ele>1533.0</ele><time>2026-04-25T07:11:58Z</time></trkpt><trkpt lat="45.69158423464828" lon="10.996992660570664"><ele>1533.0</ele><time>2026-04-25T07:11:59Z</time></trkpt><trkpt lat="45.691693392705346" lon="10.996968307096449"><ele>1533.0</ele><time>2026-04-25T07:12:00Z</time></trkpt><trkpt lat="45.69179507596977" lon="10.996929840438439"><ele>1533.0</ele><time>2026-04-25T07:12:01Z</time></trkpt><trkpt lat="45.6918881188616" lon="10.996911290291273"><ele>1533.0</ele><time>2026-04-25T07:12:02Z</time></trkpt><trkpt lat="45.691976963238446" lon="10.99690209327012"><ele>1533.0</ele><time>2026-04-25T07:12:03Z</time></trkpt><trkpt lat="45.692066102216664" lon="10.996911269442526"><ele>1533.6000000000001</ele><time>2026-04-25T07:12:04Z</time></trkpt><trkpt lat="45.69216536074033" lon="10.996931100703751"><ele>1534.2</ele><time>2026-04-25T07:12:05Z</time></trkpt><trkpt lat="45.69226083064128" lon="10.996903212486371"><ele>1534.8</ele><time>2026-04-25T07:12:06Z</time></trkpt><trkpt lat="45.692344447291674" lon="10.996831850769949"><ele>1535.4</ele><time>2026-04-25T07:12:07Z</time></trkpt><trkpt lat="45.69237484794343" lon="10.9966743946338"><ele>1536.0</ele><time>2026-04-25T07:12:08Z</time></trkpt><trkpt lat="45.69235481089764" lon="10.996499926346692"><ele>1534.25</ele><time>2026-04-25T07:12:09Z</time></trkpt><trkpt lat="45.692279494980454" lon="10.996326659439939"><ele>1532.5</ele><time>2026-04-25T07:12:10Z</time></trkpt><trkpt lat="45.69219288529602" lon="10.996159229243979"><ele>1530.75</ele><time>2026-04-25T07:12:11Z</time></trkpt><trkpt lat="45.692101375762604" lon="10.995983641505267"><ele>1529.0</ele><time>2026-04-25T07:12:12Z</time></trkpt><trkpt lat="45.69198874815308" lon="10.995817512979837"><ele>1524.6666666666667</ele><time>2026-04-25T07:12:13Z</time></trkpt><trkpt lat="45.69187002710219" lon="10.995680154005955"><ele>1520.3333333333333</ele><time>2026-04-25T07:12:14Z</time></trkpt><trkpt lat="45.6917498423087" lon="10.995543752447423"><ele>1516.0</ele><time>2026-04-25T07:12:15Z</time></trkpt><trkpt lat="45.69164319993706" lon="10.995370174321716"><ele>1516.0</ele><time>2026-04-25T07:12:16Z</time></trkpt><trkpt lat="45.69153660907191" lon="10.995186934357882"><ele>1516.0</ele><time>2026-04-25T07:12:17Z</time></trkpt><trkpt lat="45.691435821447165" lon="10.995013228964059"><ele>1516.0</ele><time>2026-04-25T07:12:18Z</time></trkpt><trkpt lat="45.69134164819084" lon="10.994839591201162"><ele>1516.3333333333333</ele><time>2026-04-25T07:12:19Z</time></trkpt><trkpt lat="45.691269143804945" lon="10.99465299222137"><ele>1516.6666666666667</ele><time>2026-04-25T07:12:20Z</time></trkpt><trkpt lat="45.691207850256475" lon="10.994448577748118"><ele>1517.0</ele><time>2026-04-25T07:12:21Z</time></trkpt><trkpt lat="45.69113558004431" lon="10.994242447729125"><ele>1512.6666666666667</ele><time>2026-04-25T07:12:22Z</time></trkpt><trkpt lat="45.69104445021298" lon="10.994053683850142"><ele>1508.3333333333333</ele><time>2026-04-25T07:12:23Z</time></trkpt><trkpt lat="45.69091959653379" lon="10.993917173461691"><ele>1504.0</ele><time>2026-04-25T07:12:24Z</time></trkpt><trkpt lat="45.69077357646678" lon="10.993858298803396"><ele>1504.0</ele><time>2026-04-25T07:12:25Z</time></trkpt><trkpt lat="45.690658841524545" lon="10.9937631224037"><ele>1504.0</ele><time>2026-04-25T07:12:26Z</time></trkpt><trkpt lat="45.690569433350575" lon="10.993653984225164"><ele>1504.0</ele><time>2026-04-25T07:12:27Z</time></trkpt><trkpt lat="45.690503617583445" lon="10.993496569699744"><ele>1504.0</ele><time>2026-04-25T07:12:28Z</time></trkpt><trkpt lat="45.69042835947939" lon="10.993316922878233"><ele>1505.0</ele><time>2026-04-25T07:12:29Z</time></trkpt><trkpt lat="45.69035505454347" lon="10.993148414105171"><ele>1506.0</ele><time>2026-04-25T07:12:30Z</time></trkpt><trkpt lat="45.6902840074606" lon="10.9929835443029"><ele>1507.0</ele><time>2026-04-25T07:12:31Z</time></trkpt><trkpt lat="45.690208879508" lon="10.992825831427389"><ele>1508.0</ele><time>2026-04-25T07:12:32Z</time></trkpt><trkpt lat="45.69012168360248" lon="10.992707191211581"><ele>1505.4</ele><time>2026-04-25T07:12:33Z</time></trkpt><trkpt lat="45.69001819838343" lon="10.99263401725761"><ele>1502.8000000000002</ele><time>2026-04-25T07:12:34Z</time></trkpt><trkpt lat="45.68993233711451" lon="10.992574902732187"><ele>1500.2</ele><time>2026-04-25T07:12:35Z</time></trkpt><trkpt lat="45.689888062452475" lon="10.992466367252298"><ele>1497.6</ele><time>2026-04-25T07:12:36Z</time></trkpt><trkpt lat="45.68990179050405" lon="10.992314830495813"><ele>1495.0</ele><time>2026-04-25T07:12:37Z</time></trkpt><trkpt lat="45.689874549623" lon="10.992163235807265"><ele>1494.25</ele><time>2026-04-25T07:12:38Z</time></trkpt><trkpt lat="45.6897902854142" lon="10.99206198756905"><ele>1493.5</ele><time>2026-04-25T07:12:39Z</time></trkpt><trkpt lat="45.68968700804822" lon="10.992043000378716"><ele>1492.75</ele><time>2026-04-25T07:12:40Z</time></trkpt><trkpt lat="45.689585463745615" lon="10.992153678281678"><ele>1492.0</ele><time>2026-04-25T07:12:41Z</time></trkpt><trkpt lat="45.689475079876104" lon="10.992215061803906"><ele>1491.25</ele><time>2026-04-25T07:12:42Z</time></trkpt><trkpt lat="45.689376953652115" lon="10.992279022428496"><ele>1490.5</ele><time>2026-04-25T07:12:43Z</time></trkpt><trkpt lat="45.68930789223925" lon="10.992411200214146"><ele>1489.75</ele><time>2026-04-25T07:12:44Z</time></trkpt><trkpt lat="45.68927294766764" lon="10.992582328789263"><ele>1489.0</ele><time>2026-04-25T07:12:45Z</time></trkpt><trkpt lat="45.68925824794257" lon="10.992737870836416"><ele>1489.0</ele><time>2026-04-25T07:12:46Z</time></trkpt><trkpt lat="45.689209013442024" lon="10.992850541455544"><ele>1489.0</ele><time>2026-04-25T07:12:47Z</time></trkpt><trkpt lat="45.6891227112075" lon="10.992900897743864"><ele>1489.0</ele><time>2026-04-25T07:12:48Z</time></trkpt><trkpt lat="45.68902600226478" lon="10.992839383213227"><ele>1489.0</ele><time>2026-04-25T07:12:49Z</time></trkpt><trkpt lat="45.68896420900589" lon="10.992738391453473"><ele>1489.0</ele><time>2026-04-25T07:12:50Z</time></trkpt><trkpt lat="45.68887041799762" lon="10.992631676109562"><ele>1489.0</ele><time>2026-04-25T07:12:51Z</time></trkpt><trkpt lat="45.68874962377864" lon="10.992557052163301"><ele>1489.0</ele><time>2026-04-25T07:12:52Z</time></trkpt><trkpt lat="45.688639008895734" lon="10.992526345812214"><ele>1489.0</ele><time>2026-04-25T07:12:53Z</time></trkpt><trkpt lat="45.68857086310871" lon="10.992440360826956"><ele>1489.0</ele><time>2026-04-25T07:12:54Z</time></trkpt><trkpt lat="45.688557939851684" lon="10.992291101790295"><ele>1489.0</ele><time>2026-04-25T07:12:55Z</time></trkpt><trkpt lat="45.688511418873" lon="10.992129591459372"><ele>1485.25</ele><time>2026-04-25T07:12:56Z</time></trkpt><trkpt lat="45.688426296655216" lon="10.991989887052895"><ele>1481.5</ele><time>2026-04-25T07:12:57Z</time></trkpt><trkpt lat="45.6883714564825" lon="10.991844706183192"><ele>1477.75</ele><time>2026-04-25T07:12:58Z</time></trkpt><trkpt lat="45.68829029686523" lon="10.991763543386892"><ele>1474.0</ele><time>2026-04-25T07:12:59Z</time></trkpt><trkpt lat="45.6881802973518" lon="10.991781364389261"><ele>1474.0</ele><time>2026-04-25T07:13:00Z</time></trkpt><trkpt lat="45.688087302783266" lon="10.991893957839432"><ele>1474.0</ele><time>2026-04-25T07:13:01Z</time></trkpt><trkpt lat="45.68797208761606" lon="10.991989005502877"><ele>1474.0</ele><time>2026-04-25T07:13:02Z</time></trkpt><trkpt lat="45.68789093172786" lon="10.992060654253326"><ele>1474.0</ele><time>2026-04-25T07:13:03Z</time></trkpt><trkpt lat="45.68780534848669" lon="10.99206419758624"><ele>1474.0</ele><time>2026-04-25T07:13:04Z</time></trkpt><trkpt lat="45.68772429853305" lon="10.99202848726006"><ele>1473.0</ele><time>2026-04-25T07:13:05Z</time></trkpt><trkpt lat="45.68768550874443" lon="10.99188219615368"><ele>1472.0</ele><time>2026-04-25T07:13:06Z</time></trkpt><trkpt lat="45.687613689910656" lon="10.991737761429931"><ele>1471.0</ele><time>2026-04-25T07:13:07Z</time></trkpt><trkpt lat="45.68755205267274" lon="10.991594361904559"><ele>1470.0</ele><time>2026-04-25T07:13:08Z</time></trkpt><trkpt lat="45.687506002442944" lon="10.991478807128821"><ele>1469.0</ele><time>2026-04-25T07:13:09Z</time></trkpt><trkpt lat="45.687466395259754" lon="10.991394856401756"><ele>1469.0</ele><time>2026-04-25T07:13:10Z</time></trkpt><trkpt lat="45.68737050112674" lon="10.991434448096381"><ele>1469.0</ele><time>2026-04-25T07:13:12Z</time></trkpt><trkpt lat="45.68732966302495" lon="10.991529969410678"><ele>1469.0</ele><time>2026-04-25T07:13:13Z</time></trkpt><trkpt lat="45.68740749972738" lon="10.99168948468568"><ele>1469.0</ele><time>2026-04-25T07:13:14Z</time></trkpt><trkpt lat="45.68746279559423" lon="10.991763964733638"><ele>1469.0</ele><time>2026-04-25T07:13:15Z</time></trkpt><trkpt lat="45.687400080209436" lon="10.991953404284514"><ele>1469.0</ele><time>2026-04-25T07:13:17Z</time></trkpt><trkpt lat="45.687301175386764" lon="10.99204183051005"><ele>1469.0</ele><time>2026-04-25T07:13:18Z</time></trkpt><trkpt lat="45.68721736899584" lon="10.992153006421098"><ele>1469.0</ele><time>2026-04-25T07:13:19Z</time></trkpt><trkpt lat="45.68714142363747" lon="10.992304813281232"><ele>1469.0</ele><time>2026-04-25T07:13:20Z</time></trkpt><trkpt lat="45.687055971920685" lon="10.992455630357542"><ele>1469.8000000000002</ele><time>2026-04-25T07:13:21Z</time></trkpt><trkpt lat="45.68695405586387" lon="10.99256966656652"><ele>1470.6000000000001</ele><time>2026-04-25T07:13:22Z</time></trkpt><trkpt lat="45.68686339663213" lon="10.992643239380905"><ele>1471.4</ele><time>2026-04-25T07:13:23Z</time></trkpt><trkpt lat="45.68679018925964" lon="10.992718066438684"><ele>1472.2</ele><time>2026-04-25T07:13:24Z</time></trkpt><trkpt lat="45.686716204325734" lon="10.992781515333581"><ele>1473.0</ele><time>2026-04-25T07:13:25Z</time></trkpt><trkpt lat="45.68663491087742" lon="10.99279197479077"><ele>1469.2</ele><time>2026-04-25T07:13:26Z</time></trkpt><trkpt lat="45.686579238037794" lon="10.992739144091713"><ele>1465.4</ele><time>2026-04-25T07:13:27Z</time></trkpt><trkpt lat="45.68657139563146" lon="10.992644754379716"><ele>1461.6000000000001</ele><time>2026-04-25T07:13:28Z</time></trkpt><trkpt lat="45.68671933118121" lon="10.99262859315674"><ele>1457.8000000000002</ele><time>2026-04-25T07:13:30Z</time></trkpt><trkpt lat="45.686814401859316" lon="10.99255768682567"><ele>1454.0</ele><time>2026-04-25T07:13:31Z</time></trkpt><trkpt lat="45.686904701629565" lon="10.99244626852019"><ele>1453.2</ele><time>2026-04-25T07:13:32Z</time></trkpt><trkpt lat="45.68696644704042" lon="10.992334520230411"><ele>1452.4</ele><time>2026-04-25T07:13:33Z</time></trkpt><trkpt lat="45.687014016910474" lon="10.992231659401346"><ele>1451.6</ele><time>2026-04-25T07:13:34Z</time></trkpt><trkpt lat="45.68699578187416" lon="10.992093156251327"><ele>1450.8</ele><time>2026-04-25T07:13:35Z</time></trkpt><trkpt lat="45.68696291102717" lon="10.991988724883416"><ele>1450.0</ele><time>2026-04-25T07:13:36Z</time></trkpt><trkpt lat="45.68690254319936" lon="10.991901400221026"><ele>1450.0</ele><time>2026-04-25T07:13:37Z</time></trkpt><trkpt lat="45.686760814329496" lon="10.991929815307845"><ele>1450.0</ele><time>2026-04-25T07:13:38Z</time></trkpt><trkpt lat="45.686620625798916" lon="10.991962142968386"><ele>1450.0</ele><time>2026-04-25T07:13:39Z</time></trkpt><trkpt lat="45.68647079799243" lon="10.991990528834842"><ele>1450.0</ele><time>2026-04-25T07:13:40Z</time></trkpt><trkpt lat="45.68633352297934" lon="10.992005125993348"><ele>1450.0</ele><time>2026-04-25T07:13:41Z</time></trkpt><trkpt lat="45.6862242966734" lon="10.991993396565494"><ele>1450.0</ele><time>2026-04-25T07:13:42Z</time></trkpt><trkpt lat="45.68614021356112" lon="10.991919719899625"><ele>1450.0</ele><time>2026-04-25T07:13:43Z</time></trkpt><trkpt lat="45.68606730831854" lon="10.991830672631446"><ele>1450.0</ele><time>2026-04-25T07:13:44Z</time></trkpt><trkpt lat="45.6859732496669" lon="10.991763763677193"><ele>1450.0</ele><time>2026-04-25T07:13:45Z</time></trkpt><trkpt lat="45.68586586744653" lon="10.991692368914295"><ele>1447.8</ele><time>2026-04-25T07:13:46Z</time></trkpt><trkpt lat="45.68576678376733" lon="10.991616229642563"><ele>1445.6</ele><time>2026-04-25T07:13:47Z</time></trkpt><trkpt lat="45.685684354268005" lon="10.991526787501218"><ele>1443.4</ele><time>2026-04-25T07:13:48Z</time></trkpt><trkpt lat="45.68562983199385" lon="10.991406728558482"><ele>1441.2</ele><time>2026-04-25T07:13:49Z</time></trkpt><trkpt lat="45.685645941776805" lon="10.991266594486174"><ele>1439.0</ele><time>2026-04-25T07:13:50Z</time></trkpt><trkpt lat="45.68564467873639" lon="10.991109411234303"><ele>1439.0</ele><time>2026-04-25T07:13:51Z</time></trkpt><trkpt lat="45.685628388055825" lon="10.990943860330638"><ele>1439.0</ele><time>2026-04-25T07:13:52Z</time></trkpt><trkpt lat="45.68560582953998" lon="10.990772038928297"><ele>1439.0</ele><time>2026-04-25T07:13:53Z</time></trkpt><trkpt lat="45.685584531405915" lon="10.990616371092884"><ele>1439.0</ele><time>2026-04-25T07:13:54Z</time></trkpt><trkpt lat="45.68554846463128" lon="10.990486897389559"><ele>1439.0</ele><time>2026-04-25T07:13:55Z</time></trkpt><trkpt lat="45.6855230666798" lon="10.990365199790281"><ele>1439.5</ele><time>2026-04-25T07:13:56Z</time></trkpt><trkpt lat="45.68542943210728" lon="10.990319255775301"><ele>1440.0</ele><time>2026-04-25T07:13:57Z</time></trkpt><trkpt lat="45.685337887098065" lon="10.990292356760467"><ele>1440.5</ele><time>2026-04-25T07:13:58Z</time></trkpt><trkpt lat="45.68529039492335" lon="10.990202460503484"><ele>1441.0</ele><time>2026-04-25T07:13:59Z</time></trkpt><trkpt lat="45.685263944368174" lon="10.990100339704222"><ele>1441.5</ele><time>2026-04-25T07:14:00Z</time></trkpt><trkpt lat="45.685242811981844" lon="10.989995528507128"><ele>1442.0</ele><time>2026-04-25T07:14:01Z</time></trkpt><trkpt lat="45.68529318939824" lon="10.98988015022654"><ele>1442.0</ele><time>2026-04-25T07:14:02Z</time></trkpt><trkpt lat="45.685308086353544" lon="10.989757790864347"><ele>1442.0</ele><time>2026-04-25T07:14:03Z</time></trkpt><trkpt lat="45.68528556623907" lon="10.989649016659623"><ele>1442.0</ele><time>2026-04-25T07:14:04Z</time></trkpt><trkpt lat="45.685246063019" lon="10.989548142271262"><ele>1442.0</ele><time>2026-04-25T07:14:05Z</time></trkpt><trkpt lat="45.68513251827867" lon="10.989485088011474"><ele>1442.0</ele><time>2026-04-25T07:14:06Z</time></trkpt><trkpt lat="45.68504499465961" lon="10.989465143950682"><ele>1437.3333333333335</ele><time>2026-04-25T07:14:07Z</time></trkpt><trkpt lat="45.68496692948673" lon="10.989415653277183"><ele>1432.6666666666667</ele><time>2026-04-25T07:14:08Z</time></trkpt><trkpt lat="45.68492685602517" lon="10.989341494390954"><ele>1428.0</ele><time>2026-04-25T07:14:09Z</time></trkpt><trkpt lat="45.68499799455559" lon="10.989227655044248"><ele>1423.3333333333333</ele><time>2026-04-25T07:14:10Z</time></trkpt><trkpt lat="45.68502825035452" lon="10.989115076623277"><ele>1418.6666666666665</ele><time>2026-04-25T07:14:11Z</time></trkpt><trkpt lat="45.685065194485986" lon="10.988987760391579"><ele>1414.0</ele><time>2026-04-25T07:14:12Z</time></trkpt><trkpt lat="45.68511303978288" lon="10.988888300960378"><ele>1414.0</ele><time>2026-04-25T07:14:13Z</time></trkpt><trkpt lat="45.68518099807335" lon="10.988846473977208"><ele>1414.0</ele><time>2026-04-25T07:14:14Z</time></trkpt><trkpt lat="45.68525829657811" lon="10.988854589271817"><ele>1414.0</ele><time>2026-04-25T07:14:15Z</time></trkpt><trkpt lat="45.685362636674114" lon="10.988861226716947"><ele>1414.0</ele><time>2026-04-25T07:14:16Z</time></trkpt><trkpt lat="45.685472213714064" lon="10.988870226597284"><ele>1414.0</ele><time>2026-04-25T07:14:17Z</time></trkpt><trkpt lat="45.68559365228122" lon="10.988879116045151"><ele>1416.5</ele><time>2026-04-25T07:14:18Z</time></trkpt><trkpt lat="45.68572125813185" lon="10.988860059118261"><ele>1419.0</ele><time>2026-04-25T07:14:19Z</time></trkpt><trkpt lat="45.68584867409483" lon="10.988856938202497"><ele>1421.5</ele><time>2026-04-25T07:14:20Z</time></trkpt><trkpt lat="45.68597088644509" lon="10.988826743588882"><ele>1424.0</ele><time>2026-04-25T07:14:21Z</time></trkpt><trkpt lat="45.68608270822131" lon="10.98877942014595"><ele>1424.8000000000002</ele><time>2026-04-25T07:14:22Z</time></trkpt><trkpt lat="45.68619236628645" lon="10.988729187529776"><ele>1425.6000000000001</ele><time>2026-04-25T07:14:23Z</time></trkpt><trkpt lat="45.6862971915503" lon="10.988676262897847"><ele>1426.4</ele><time>2026-04-25T07:14:24Z</time></trkpt><trkpt lat="45.686382174026086" lon="10.98858118403923"><ele>1427.2</ele><time>2026-04-25T07:14:25Z</time></trkpt><trkpt lat="45.686456117191575" lon="10.988458620766902"><ele>1428.0</ele><time>2026-04-25T07:14:26Z</time></trkpt><trkpt lat="45.686560441104184" lon="10.98842761169874"><ele>1428.0</ele><time>2026-04-25T07:14:27Z</time></trkpt><trkpt lat="45.68665436508953" lon="10.988443662200922"><ele>1428.0</ele><time>2026-04-25T07:14:28Z</time></trkpt><trkpt lat="45.686746212279296" lon="10.988436447948024"><ele>1428.0</ele><time>2026-04-25T07:14:29Z</time></trkpt><trkpt lat="45.686824735793984" lon="10.988386012845329"><ele>1428.0</ele><time>2026-04-25T07:14:30Z</time></trkpt><trkpt lat="45.68688233582281" lon="10.98830781894789"><ele>1428.0</ele><time>2026-04-25T07:14:31Z</time></trkpt><trkpt lat="45.68688683326113" lon="10.988170805776711"><ele>1428.0</ele><time>2026-04-25T07:14:32Z</time></trkpt><trkpt lat="45.68683249195938" lon="10.988065170882448"><ele>1427.8000000000002</ele><time>2026-04-25T07:14:33Z</time></trkpt><trkpt lat="45.68679335862862" lon="10.987987799090869"><ele>1427.6</ele><time>2026-04-25T07:14:34Z</time></trkpt><trkpt lat="45.68684828166573" lon="10.98784426870539"><ele>1427.4</ele><time>2026-04-25T07:14:36Z</time></trkpt><trkpt lat="45.68692510567283" lon="10.987782107228384"><ele>1427.1999999999998</ele><time>2026-04-25T07:14:37Z</time></trkpt><trkpt lat="45.68699107662935" lon="10.987703813053605"><ele>1427.0</ele><time>2026-04-25T07:14:38Z</time></trkpt><trkpt lat="45.687099533754264" lon="10.987572197591655"><ele>1422.75</ele><time>2026-04-25T07:14:39Z</time></trkpt><trkpt lat="45.687183546748685" lon="10.987426018751302"><ele>1418.5</ele><time>2026-04-25T07:14:40Z</time></trkpt><trkpt lat="45.68727596154944" lon="10.987282116955127"><ele>1414.25</ele><time>2026-04-25T07:14:41Z</time></trkpt><trkpt lat="45.68735035426437" lon="10.987118063187454"><ele>1410.0</ele><time>2026-04-25T07:14:42Z</time></trkpt><trkpt lat="45.68742917365297" lon="10.98697019434821"><ele>1410.0</ele><time>2026-04-25T07:14:43Z</time></trkpt><trkpt lat="45.687481744327584" lon="10.98682426311719"><ele>1410.0</ele><time>2026-04-25T07:14:44Z</time></trkpt><trkpt lat="45.6875162895419" lon="10.986684708607882"><ele>1410.0</ele><time>2026-04-25T07:14:45Z</time></trkpt><trkpt lat="45.687516604088586" lon="10.98655835311083"><ele>1410.0</ele><time>2026-04-25T07:14:46Z</time></trkpt><trkpt lat="45.68755276239936" lon="10.986460448690714"><ele>1410.0</ele><time>2026-04-25T07:14:47Z</time></trkpt><trkpt lat="45.6875804382077" lon="10.98636947305701"><ele>1409.5714285714284</ele><time>2026-04-25T07:14:48Z</time></trkpt><trkpt lat="45.68761279447565" lon="10.986287321292366"><ele>1409.142857142857</ele><time>2026-04-25T07:14:49Z</time></trkpt><trkpt lat="45.687676148863396" lon="10.98626525572893"><ele>1408.7142857142858</ele><time>2026-04-25T07:14:50Z</time></trkpt><trkpt lat="45.68772410853728" lon="10.986201878017132"><ele>1408.2857142857142</ele><time>2026-04-25T07:14:51Z</time></trkpt><trkpt lat="45.68779184434195" lon="10.986155356872809"><ele>1407.857142857143</ele><time>2026-04-25T07:14:52Z</time></trkpt><trkpt lat="45.687862834002246" lon="10.986105272513452"><ele>1407.4285714285713</ele><time>2026-04-25T07:14:53Z</time></trkpt><trkpt lat="45.68793805851053" lon="10.986053793032193"><ele>1407.0</ele><time>2026-04-25T07:14:54Z</time></trkpt><trkpt lat="45.68800588727076" lon="10.986001019418639"><ele>1407.0</ele><time>2026-04-25T07:14:55Z</time></trkpt><trkpt lat="45.688067218599464" lon="10.98593369669308"><ele>1407.0</ele><time>2026-04-25T07:14:56Z</time></trkpt><trkpt lat="45.68812111272538" lon="10.985847874662781"><ele>1407.0</ele><time>2026-04-25T07:14:57Z</time></trkpt><trkpt lat="45.68816454967197" lon="10.985738530566097"><ele>1407.0</ele><time>2026-04-25T07:14:58Z</time></trkpt><trkpt lat="45.68819584677789" lon="10.98560142077166"><ele>1407.0</ele><time>2026-04-25T07:14:59Z</time></trkpt><trkpt lat="45.68821085803922" lon="10.985445013532733"><ele>1403.8</ele><time>2026-04-25T07:15:00Z</time></trkpt><trkpt lat="45.6882126300288" lon="10.985282919280982"><ele>1400.6</ele><time>2026-04-25T07:15:01Z</time></trkpt><trkpt lat="45.688210299400325" lon="10.985125853097424"><ele>1397.3999999999999</ele><time>2026-04-25T07:15:02Z</time></trkpt><trkpt lat="45.68820065397813" lon="10.98498031359054"><ele>1394.1999999999998</ele><time>2026-04-25T07:15:03Z</time></trkpt><trkpt lat="45.68817935308788" lon="10.98485064291211"><ele>1391.0</ele><time>2026-04-25T07:15:04Z</time></trkpt><trkpt lat="45.68814389789245" lon="10.984738511011868"><ele>1389.1999999999998</ele><time>2026-04-25T07:15:05Z</time></trkpt><trkpt lat="45.688095710672904" lon="10.984631666464942"><ele>1387.3999999999999</ele><time>2026-04-25T07:15:06Z</time></trkpt><trkpt lat="45.68804222617085" lon="10.984511646157936"><ele>1385.6</ele><time>2026-04-25T07:15:07Z</time></trkpt><trkpt lat="45.68797752470678" lon="10.984375470202863"><ele>1383.8</ele><time>2026-04-25T07:15:08Z</time></trkpt><trkpt lat="45.68790498893006" lon="10.984221070665715"><ele>1382.0</ele><time>2026-04-25T07:15:09Z</time></trkpt><trkpt lat="45.68784049204175" lon="10.984040674645193"><ele>1380.5</ele><time>2026-04-25T07:15:10Z</time></trkpt><trkpt lat="45.6877492463046" lon="10.983864683554863"><ele>1379.0</ele><time>2026-04-25T07:15:11Z</time></trkpt><trkpt lat="45.68762254306602" lon="10.983742378814995"><ele>1377.5</ele><time>2026-04-25T07:15:12Z</time></trkpt><trkpt lat="45.68749563701803" lon="10.983646336330052"><ele>1376.0</ele><time>2026-04-25T07:15:13Z</time></trkpt><trkpt lat="45.687380130464305" lon="10.98353000661582"><ele>1376.0</ele><time>2026-04-25T07:15:14Z</time></trkpt><trkpt lat="45.68727044361651" lon="10.983409841008596"><ele>1376.0</ele><time>2026-04-25T07:15:15Z</time></trkpt><trkpt lat="45.68716448894123" lon="10.983273638780183"><ele>1376.0</ele><time>2026-04-25T07:15:16Z</time></trkpt><trkpt lat="45.687051843251005" lon="10.983133826487714"><ele>1376.0</ele><time>2026-04-25T07:15:17Z</time></trkpt><trkpt lat="45.68691472388056" lon="10.983028321544786"><ele>1372.6666666666667</ele><time>2026-04-25T07:15:18Z</time></trkpt><trkpt lat="45.686770008395364" lon="10.982940323087158"><ele>1369.3333333333333</ele><time>2026-04-25T07:15:19Z</time></trkpt><trkpt lat="45.68661273273734" lon="10.982897021893615"><ele>1366.0</ele><time>2026-04-25T07:15:20Z</time></trkpt><trkpt lat="45.68644849582419" lon="10.982883504479604"><ele>1366.0</ele><time>2026-04-25T07:15:21Z</time></trkpt><trkpt lat="45.68628548185837" lon="10.9828715256087"><ele>1366.0</ele><time>2026-04-25T07:15:22Z</time></trkpt><trkpt lat="45.68612996847012" lon="10.982867635615515"><ele>1366.0</ele><time>2026-04-25T07:15:23Z</time></trkpt><trkpt lat="45.685985174629465" lon="10.98289030039705"><ele>1364.5</ele><time>2026-04-25T07:15:24Z</time></trkpt><trkpt lat="45.68584595966202" lon="10.982896874752582"><ele>1363.0</ele><time>2026-04-25T07:15:25Z</time></trkpt><trkpt lat="45.68571640903126" lon="10.982902955867285"><ele>1361.5</ele><time>2026-04-25T07:15:26Z</time></trkpt><trkpt lat="45.68558950528455" lon="10.982893923347293"><ele>1360.0</ele><time>2026-04-25T07:15:27Z</time></trkpt><trkpt lat="45.685458705770465" lon="10.982864179534685"><ele>1360.0</ele><time>2026-04-25T07:15:28Z</time></trkpt><trkpt lat="45.68533288101247" lon="10.982806492823226"><ele>1360.0</ele><time>2026-04-25T07:15:29Z</time></trkpt><trkpt lat="45.68524033082495" lon="10.982681983584952"><ele>1360.0</ele><time>2026-04-25T07:15:30Z</time></trkpt><trkpt lat="45.685125910122046" lon="10.982574684513583"><ele>1360.0</ele><time>2026-04-25T07:15:31Z</time></trkpt><trkpt lat="45.68499796947497" lon="10.982496529257936"><ele>1362.75</ele><time>2026-04-25T07:15:32Z</time></trkpt><trkpt lat="45.68486525307547" lon="10.982430388995686"><ele>1365.5</ele><time>2026-04-25T07:15:33Z</time></trkpt><trkpt lat="45.6847237774311" lon="10.982376421321007"><ele>1368.25</ele><time>2026-04-25T07:15:34Z</time></trkpt><trkpt lat="45.6845821409925" lon="10.982331606326575"><ele>1371.0</ele><time>2026-04-25T07:15:35Z</time></trkpt><trkpt lat="45.684435752760926" lon="10.982292688629087"><ele>1372.0</ele><time>2026-04-25T07:15:36Z</time></trkpt><trkpt lat="45.68429067287666" lon="10.9822647194256"><ele>1373.0</ele><time>2026-04-25T07:15:37Z</time></trkpt><trkpt lat="45.684143878368005" lon="10.98225170320528"><ele>1374.0</ele><time>2026-04-25T07:15:38Z</time></trkpt><trkpt lat="45.684000414167805" lon="10.982244818518936"><ele>1375.0</ele><time>2026-04-25T07:15:39Z</time></trkpt><trkpt lat="45.683862304897374" lon="10.982245395516092"><ele>1375.0</ele><time>2026-04-25T07:15:40Z</time></trkpt><trkpt lat="45.68373751227871" lon="10.982215225694954"><ele>1375.0</ele><time>2026-04-25T07:15:41Z</time></trkpt><trkpt lat="45.68363383982282" lon="10.982190234863603"><ele>1375.0</ele><time>2026-04-25T07:15:42Z</time></trkpt><trkpt lat="45.6835532297069" lon="10.982134122243865"><ele>1375.0</ele><time>2026-04-25T07:15:43Z</time></trkpt><trkpt lat="45.68351651558788" lon="10.982027880687717"><ele>1375.0</ele><time>2026-04-25T07:15:44Z</time></trkpt><trkpt lat="45.6835133858936" lon="10.981905630334074"><ele>1374.0</ele><time>2026-04-25T07:15:45Z</time></trkpt><trkpt lat="45.68356290618345" lon="10.981785327574027"><ele>1373.0</ele><time>2026-04-25T07:15:46Z</time></trkpt><trkpt lat="45.68359824369488" lon="10.981624759211472"><ele>1372.0</ele><time>2026-04-25T07:15:47Z</time></trkpt><trkpt lat="45.683626952327444" lon="10.981463354365175"><ele>1371.0</ele><time>2026-04-25T07:15:48Z</time></trkpt><trkpt lat="45.683648066020226" lon="10.981285870596393"><ele>1373.25</ele><time>2026-04-25T07:15:49Z</time></trkpt><trkpt lat="45.68366821180172" lon="10.981099832367283"><ele>1375.5</ele><time>2026-04-25T07:15:50Z</time></trkpt><trkpt lat="45.683687669378074" lon="10.980902533182183"><ele>1377.75</ele><time>2026-04-25T07:15:51Z</time></trkpt><trkpt lat="45.683706450393174" lon="10.980711382532832"><ele>1380.0</ele><time>2026-04-25T07:15:52Z</time></trkpt><trkpt lat="45.68372366400846" lon="10.980534104615817"><ele>1379.8333333333333</ele><time>2026-04-25T07:15:53Z</time></trkpt><trkpt lat="45.683738113368875" lon="10.98037908078724"><ele>1379.6666666666667</ele><time>2026-04-25T07:15:54Z</time></trkpt><trkpt lat="45.683751015011" lon="10.980240662069308"><ele>1379.5</ele><time>2026-04-25T07:15:55Z</time></trkpt><trkpt lat="45.683763148164864" lon="10.980118085051291"><ele>1379.3333333333335</ele><time>2026-04-25T07:15:56Z</time></trkpt><trkpt lat="45.683774741245564" lon="10.98000671668715"><ele>1379.1666666666667</ele><time>2026-04-25T07:15:57Z</time></trkpt><trkpt lat="45.68378520264889" lon="10.979906219701492"><ele>1379.0</ele><time>2026-04-25T07:15:58Z</time></trkpt><trkpt lat="45.68379340792361" lon="10.979814692320575"><ele>1379.0</ele><time>2026-04-25T07:15:59Z</time></trkpt><trkpt lat="45.683793954646106" lon="10.979672531263043"><ele>1379.0</ele><time>2026-04-25T07:16:01Z</time></trkpt><trkpt lat="45.6837925897437" lon="10.97957008238102"><ele>1379.0</ele><time>2026-04-25T07:16:03Z</time></trkpt></trkseg></trk></gpx>